<?xml version="1.0" encoding="UTF-8" standalone="no" ?>
<gpx xmlns="http://www.topografix.com/GPX/1/1" xmlns:xsi="http://www.w3.org/2001/XMLSchema-instance" xsi:schemaLocation="http://www.topografix.com/GPX/1/1 http://www.topografix.com/GPX/1/1/gpx.xsd" version="1.1" creator="VisuGPX - https://www.visugpx.com">
  <metadata>
    <name>09-MARS-22 11:54:53 AM inversé</name>
  </metadata>
  <wpt lat="45.32317" lon="4.77762">
    <ele>138</ele>
    <name><![CDATA[OpenRunner_1646755390]]></name>
    <type><![CDATA[photo]]></type>
  </wpt>
  <wpt lat="45.32317" lon="4.77762">
    <ele>138</ele>
    <name><![CDATA[OpenRunner_1646755391]]></name>
    <type><![CDATA[photo]]></type>
  </wpt>
  <wpt lat="45.31857" lon="4.76198">
    <ele>145.8</ele>
    <name><![CDATA[OpenRunner_1646814982]]></name>
    <type><![CDATA[photo]]></type>
  </wpt>
  <wpt lat="45.31851" lon="4.76202">
    <ele>147.1</ele>
    <name><![CDATA[OpenRunner_1646815002]]></name>
    <type><![CDATA[photo]]></type>
  </wpt>
  <wpt lat="45.3273" lon="4.74356">
    <ele>353.5</ele>
    <name><![CDATA[OpenRunner_1646817603]]></name>
    <type><![CDATA[photo]]></type>
  </wpt>
  <wpt lat="45.31764" lon="4.76181">
    <ele>172.9</ele>
    <name><![CDATA[OpenRunner_1646821402]]></name>
    <type><![CDATA[photo]]></type>
  </wpt>
  <wpt lat="45.31754" lon="4.76262">
    <ele>164.2</ele>
    <name><![CDATA[OpenRunner_1646821532]]></name>
    <type><![CDATA[photo]]></type>
  </wpt>
  <trk>
    <name><![CDATA[09-MARS-22 11:54:53 AM]]></name>
    <extensions>
      <line xmlns="http://www.topografix.com/GPX/gpx_style/0/2">
        <color>0000FF</color>
        <width>4</width>
          <extensions>
            <sens>1</sens>
          </extensions>
      </line>
    </extensions>
    <trkseg>
      <trkpt lat="45.3231" lon="4.77776">
        <ele>136.64</ele>
        <time>2022-03-09T10:54:39Z</time>
      </trkpt>
      <trkpt lat="45.32308" lon="4.77781">
        <ele>136.16</ele>
        <time>2022-03-09T10:54:26Z</time>
      </trkpt>
      <trkpt lat="45.32306" lon="4.77783">
        <ele>136.64</ele>
        <time>2022-03-09T10:54:20Z</time>
      </trkpt>
      <trkpt lat="45.32303" lon="4.77783">
        <ele>135.2</ele>
        <time>2022-03-09T10:54:06Z</time>
      </trkpt>
      <trkpt lat="45.32302" lon="4.77781">
        <ele>135.68</ele>
        <time>2022-03-09T10:53:48Z</time>
      </trkpt>
      <trkpt lat="45.32296" lon="4.77774">
        <ele>136.16</ele>
        <time>2022-03-09T10:53:33Z</time>
      </trkpt>
      <trkpt lat="45.32286" lon="4.77746">
        <ele>136.16</ele>
        <time>2022-03-09T10:53:16Z</time>
      </trkpt>
      <trkpt lat="45.32276" lon="4.77721">
        <ele>136.16</ele>
        <time>2022-03-09T10:52:59Z</time>
      </trkpt>
      <trkpt lat="45.32263" lon="4.77685">
        <ele>135.68</ele>
        <time>2022-03-09T10:52:38Z</time>
      </trkpt>
      <trkpt lat="45.32257" lon="4.77654">
        <ele>135.68</ele>
        <time>2022-03-09T10:52:19Z</time>
      </trkpt>
      <trkpt lat="45.32258" lon="4.77651">
        <ele>136.16</ele>
        <time>2022-03-09T10:52:17Z</time>
      </trkpt>
      <trkpt lat="45.32277" lon="4.77647">
        <ele>135.68</ele>
        <time>2022-03-09T10:51:58Z</time>
      </trkpt>
      <trkpt lat="45.32295" lon="4.77643">
        <ele>135.68</ele>
        <time>2022-03-09T10:51:42Z</time>
      </trkpt>
      <trkpt lat="45.32315" lon="4.77637">
        <ele>135.2</ele>
        <time>2022-03-09T10:51:24Z</time>
      </trkpt>
      <trkpt lat="45.32334" lon="4.77625">
        <ele>135.68</ele>
        <time>2022-03-09T10:51:04Z</time>
      </trkpt>
      <trkpt lat="45.32334" lon="4.77612">
        <ele>135.68</ele>
        <time>2022-03-09T10:50:56Z</time>
      </trkpt>
      <trkpt lat="45.32329" lon="4.77585">
        <ele>135.68</ele>
        <time>2022-03-09T10:50:39Z</time>
      </trkpt>
      <trkpt lat="45.32323" lon="4.77549">
        <ele>135.2</ele>
        <time>2022-03-09T10:50:19Z</time>
      </trkpt>
      <trkpt lat="45.32317" lon="4.77516">
        <ele>135.68</ele>
        <time>2022-03-09T10:50:00Z</time>
      </trkpt>
      <trkpt lat="45.32311" lon="4.77483">
        <ele>135.2</ele>
        <time>2022-03-09T10:49:40Z</time>
      </trkpt>
      <trkpt lat="45.32304" lon="4.77456">
        <ele>134.72</ele>
        <time>2022-03-09T10:49:23Z</time>
      </trkpt>
      <trkpt lat="45.32294" lon="4.77419">
        <ele>133.76</ele>
        <time>2022-03-09T10:49:02Z</time>
      </trkpt>
      <trkpt lat="45.32293" lon="4.77397">
        <ele>134.72</ele>
        <time>2022-03-09T10:48:50Z</time>
      </trkpt>
      <trkpt lat="45.32286" lon="4.77367">
        <ele>135.2</ele>
        <time>2022-03-09T10:48:30Z</time>
      </trkpt>
      <trkpt lat="45.32279" lon="4.77338">
        <ele>134.72</ele>
        <time>2022-03-09T10:48:12Z</time>
      </trkpt>
      <trkpt lat="45.32269" lon="4.77301">
        <ele>134.72</ele>
        <time>2022-03-09T10:47:53Z</time>
      </trkpt>
      <trkpt lat="45.3226" lon="4.77273">
        <ele>134.72</ele>
        <time>2022-03-09T10:47:34Z</time>
      </trkpt>
      <trkpt lat="45.32249" lon="4.77238">
        <ele>134.24</ele>
        <time>2022-03-09T10:47:15Z</time>
      </trkpt>
      <trkpt lat="45.32239" lon="4.77204">
        <ele>133.76</ele>
        <time>2022-03-09T10:46:57Z</time>
      </trkpt>
      <trkpt lat="45.3223" lon="4.77175">
        <ele>133.76</ele>
        <time>2022-03-09T10:46:39Z</time>
      </trkpt>
      <trkpt lat="45.32222" lon="4.77148">
        <ele>134.24</ele>
        <time>2022-03-09T10:46:20Z</time>
      </trkpt>
      <trkpt lat="45.32211" lon="4.77119">
        <ele>133.76</ele>
        <time>2022-03-09T10:46:02Z</time>
      </trkpt>
      <trkpt lat="45.32198" lon="4.77086">
        <ele>134.24</ele>
        <time>2022-03-09T10:45:42Z</time>
      </trkpt>
      <trkpt lat="45.32198" lon="4.77081">
        <ele>133.76</ele>
        <time>2022-03-09T10:45:40Z</time>
      </trkpt>
      <trkpt lat="45.32187" lon="4.77055">
        <ele>133.76</ele>
        <time>2022-03-09T10:45:23Z</time>
      </trkpt>
      <trkpt lat="45.32179" lon="4.77022">
        <ele>133.76</ele>
        <time>2022-03-09T10:45:04Z</time>
      </trkpt>
      <trkpt lat="45.32169" lon="4.76984">
        <ele>134.72</ele>
        <time>2022-03-09T10:44:45Z</time>
      </trkpt>
      <trkpt lat="45.32153" lon="4.76967">
        <ele>134.24</ele>
        <time>2022-03-09T10:44:27Z</time>
      </trkpt>
      <trkpt lat="45.32138" lon="4.76942">
        <ele>134.72</ele>
        <time>2022-03-09T10:44:09Z</time>
      </trkpt>
      <trkpt lat="45.32123" lon="4.76916">
        <ele>134.24</ele>
        <time>2022-03-09T10:43:52Z</time>
      </trkpt>
      <trkpt lat="45.32108" lon="4.7689">
        <ele>134.24</ele>
        <time>2022-03-09T10:43:33Z</time>
      </trkpt>
      <trkpt lat="45.32091" lon="4.76893">
        <ele>134.24</ele>
        <time>2022-03-09T10:43:22Z</time>
      </trkpt>
      <trkpt lat="45.32082" lon="4.76896">
        <ele>134.72</ele>
        <time>2022-03-09T10:43:15Z</time>
      </trkpt>
      <trkpt lat="45.3208" lon="4.76897">
        <ele>134.72</ele>
        <time>2022-03-09T10:43:14Z</time>
      </trkpt>
      <trkpt lat="45.32063" lon="4.76905">
        <ele>134.24</ele>
        <time>2022-03-09T10:43:01Z</time>
      </trkpt>
      <trkpt lat="45.32049" lon="4.76908">
        <ele>134.24</ele>
        <time>2022-03-09T10:42:51Z</time>
      </trkpt>
      <trkpt lat="45.32045" lon="4.76909">
        <ele>134.24</ele>
        <time>2022-03-09T10:42:47Z</time>
      </trkpt>
      <trkpt lat="45.32039" lon="4.7691">
        <ele>134.24</ele>
        <time>2022-03-09T10:42:43Z</time>
      </trkpt>
      <trkpt lat="45.32024" lon="4.76916">
        <ele>134.72</ele>
        <time>2022-03-09T10:42:31Z</time>
      </trkpt>
      <trkpt lat="45.32015" lon="4.76919">
        <ele>134.24</ele>
        <time>2022-03-09T10:42:22Z</time>
      </trkpt>
      <trkpt lat="45.3199" lon="4.76927">
        <ele>134.72</ele>
        <time>2022-03-09T10:42:04Z</time>
      </trkpt>
      <trkpt lat="45.31982" lon="4.76924">
        <ele>135.68</ele>
        <time>2022-03-09T10:41:53Z</time>
      </trkpt>
      <trkpt lat="45.3198" lon="4.76922">
        <ele>134.72</ele>
        <time>2022-03-09T10:41:50Z</time>
      </trkpt>
      <trkpt lat="45.31971" lon="4.76904">
        <ele>134.72</ele>
        <time>2022-03-09T10:41:33Z</time>
      </trkpt>
      <trkpt lat="45.31964" lon="4.76884">
        <ele>135.2</ele>
        <time>2022-03-09T10:41:19Z</time>
      </trkpt>
      <trkpt lat="45.3195" lon="4.76894">
        <ele>135.2</ele>
        <time>2022-03-09T10:41:02Z</time>
      </trkpt>
      <trkpt lat="45.31939" lon="4.76895">
        <ele>135.2</ele>
        <time>2022-03-09T10:40:56Z</time>
      </trkpt>
      <trkpt lat="45.31933" lon="4.769">
        <ele>135.2</ele>
        <time>2022-03-09T10:40:51Z</time>
      </trkpt>
      <trkpt lat="45.31929" lon="4.76902">
        <ele>135.2</ele>
        <time>2022-03-09T10:40:49Z</time>
      </trkpt>
      <trkpt lat="45.31926" lon="4.76902">
        <ele>135.2</ele>
        <time>2022-03-09T10:40:47Z</time>
      </trkpt>
      <trkpt lat="45.31923" lon="4.76898">
        <ele>134.72</ele>
        <time>2022-03-09T10:40:35Z</time>
      </trkpt>
      <trkpt lat="45.3193" lon="4.76905">
        <ele>134.72</ele>
        <time>2022-03-09T10:40:23Z</time>
      </trkpt>
      <trkpt lat="45.31889" lon="4.7693">
        <ele>135.2</ele>
        <time>2022-03-09T10:39:12Z</time>
      </trkpt>
      <trkpt lat="45.31919" lon="4.76923">
        <ele>135.2</ele>
        <time>2022-03-09T10:38:37Z</time>
      </trkpt>
      <trkpt lat="45.31908" lon="4.76913">
        <ele>135.68</ele>
        <time>2022-03-09T10:38:17Z</time>
      </trkpt>
      <trkpt lat="45.31904" lon="4.76907">
        <ele>135.2</ele>
        <time>2022-03-09T10:37:51Z</time>
      </trkpt>
      <trkpt lat="45.31914" lon="4.76906">
        <ele>135.2</ele>
        <time>2022-03-09T10:37:29Z</time>
      </trkpt>
      <trkpt lat="45.31911" lon="4.76911">
        <ele>135.2</ele>
        <time>2022-03-09T10:37:12Z</time>
      </trkpt>
      <trkpt lat="45.31912" lon="4.76896">
        <ele>135.68</ele>
        <time>2022-03-09T10:36:58Z</time>
      </trkpt>
      <trkpt lat="45.31908" lon="4.76888">
        <ele>135.2</ele>
        <time>2022-03-09T10:36:53Z</time>
      </trkpt>
      <trkpt lat="45.31901" lon="4.76865">
        <ele>137.61</ele>
        <time>2022-03-09T10:36:38Z</time>
      </trkpt>
      <trkpt lat="45.31899" lon="4.7686">
        <ele>138.09</ele>
        <time>2022-03-09T10:36:35Z</time>
      </trkpt>
      <trkpt lat="45.31897" lon="4.76857">
        <ele>138.09</ele>
        <time>2022-03-09T10:36:33Z</time>
      </trkpt>
      <trkpt lat="45.31896" lon="4.76853">
        <ele>138.09</ele>
        <time>2022-03-09T10:36:28Z</time>
      </trkpt>
      <trkpt lat="45.31883" lon="4.76822">
        <ele>138.57</ele>
        <time>2022-03-09T10:36:10Z</time>
      </trkpt>
      <trkpt lat="45.31881" lon="4.76819">
        <ele>139.53</ele>
        <time>2022-03-09T10:36:07Z</time>
      </trkpt>
      <trkpt lat="45.31873" lon="4.76798">
        <ele>140.49</ele>
        <time>2022-03-09T10:35:53Z</time>
      </trkpt>
      <trkpt lat="45.31861" lon="4.76772">
        <ele>141.45</ele>
        <time>2022-03-09T10:35:35Z</time>
      </trkpt>
      <trkpt lat="45.31848" lon="4.76747">
        <ele>142.41</ele>
        <time>2022-03-09T10:35:17Z</time>
      </trkpt>
      <trkpt lat="45.31846" lon="4.76741">
        <ele>141.93</ele>
        <time>2022-03-09T10:35:13Z</time>
      </trkpt>
      <trkpt lat="45.31845" lon="4.76739">
        <ele>142.89</ele>
        <time>2022-03-09T10:35:12Z</time>
      </trkpt>
      <trkpt lat="45.31836" lon="4.76717">
        <ele>141.93</ele>
        <time>2022-03-09T10:34:57Z</time>
      </trkpt>
      <trkpt lat="45.31823" lon="4.7669">
        <ele>141.45</ele>
        <time>2022-03-09T10:34:40Z</time>
      </trkpt>
      <trkpt lat="45.31812" lon="4.7667">
        <ele>140.97</ele>
        <time>2022-03-09T10:34:25Z</time>
      </trkpt>
      <trkpt lat="45.31802" lon="4.76652">
        <ele>140.01</ele>
        <time>2022-03-09T10:34:10Z</time>
      </trkpt>
      <trkpt lat="45.31789" lon="4.76625">
        <ele>140.01</ele>
        <time>2022-03-09T10:33:54Z</time>
      </trkpt>
      <trkpt lat="45.31778" lon="4.76615">
        <ele>139.53</ele>
        <time>2022-03-09T10:33:41Z</time>
      </trkpt>
      <trkpt lat="45.3177" lon="4.76621">
        <ele>138.57</ele>
        <time>2022-03-09T10:33:27Z</time>
      </trkpt>
      <trkpt lat="45.31774" lon="4.76619">
        <ele>137.13</ele>
        <time>2022-03-09T10:32:46Z</time>
      </trkpt>
      <trkpt lat="45.31773" lon="4.7662">
        <ele>138.09</ele>
        <time>2022-03-09T10:32:07Z</time>
      </trkpt>
      <trkpt lat="45.31773" lon="4.76621">
        <ele>137.13</ele>
        <time>2022-03-09T10:31:39Z</time>
      </trkpt>
      <trkpt lat="45.31775" lon="4.76619">
        <ele>138.57</ele>
        <time>2022-03-09T10:31:19Z</time>
      </trkpt>
      <trkpt lat="45.31768" lon="4.76611">
        <ele>137.61</ele>
        <time>2022-03-09T10:31:06Z</time>
      </trkpt>
      <trkpt lat="45.31765" lon="4.76604">
        <ele>137.13</ele>
        <time>2022-03-09T10:31:00Z</time>
      </trkpt>
      <trkpt lat="45.31763" lon="4.76602">
        <ele>136.16</ele>
        <time>2022-03-09T10:30:57Z</time>
      </trkpt>
      <trkpt lat="45.31763" lon="4.76598">
        <ele>135.2</ele>
        <time>2022-03-09T10:30:52Z</time>
      </trkpt>
      <trkpt lat="45.31771" lon="4.76584">
        <ele>136.16</ele>
        <time>2022-03-09T10:30:37Z</time>
      </trkpt>
      <trkpt lat="45.31773" lon="4.76577">
        <ele>136.16</ele>
        <time>2022-03-09T10:30:33Z</time>
      </trkpt>
      <trkpt lat="45.31775" lon="4.76566">
        <ele>136.64</ele>
        <time>2022-03-09T10:30:28Z</time>
      </trkpt>
      <trkpt lat="45.31767" lon="4.76548">
        <ele>136.16</ele>
        <time>2022-03-09T10:30:17Z</time>
      </trkpt>
      <trkpt lat="45.31747" lon="4.76535">
        <ele>136.16</ele>
        <time>2022-03-09T10:30:03Z</time>
      </trkpt>
      <trkpt lat="45.31734" lon="4.76517">
        <ele>137.13</ele>
        <time>2022-03-09T10:29:50Z</time>
      </trkpt>
      <trkpt lat="45.31715" lon="4.76491">
        <ele>139.53</ele>
        <time>2022-03-09T10:29:35Z</time>
      </trkpt>
      <trkpt lat="45.31711" lon="4.76492">
        <ele>139.53</ele>
        <time>2022-03-09T10:29:29Z</time>
      </trkpt>
      <trkpt lat="45.31706" lon="4.76486">
        <ele>140.97</ele>
        <time>2022-03-09T10:29:15Z</time>
      </trkpt>
      <trkpt lat="45.31689" lon="4.76483">
        <ele>142.41</ele>
        <time>2022-03-09T10:28:58Z</time>
      </trkpt>
      <trkpt lat="45.31684" lon="4.76486">
        <ele>142.89</ele>
        <time>2022-03-09T10:28:54Z</time>
      </trkpt>
      <trkpt lat="45.31678" lon="4.76485">
        <ele>143.85</ele>
        <time>2022-03-09T10:28:49Z</time>
      </trkpt>
      <trkpt lat="45.31677" lon="4.76477">
        <ele>143.85</ele>
        <time>2022-03-09T10:28:45Z</time>
      </trkpt>
      <trkpt lat="45.31674" lon="4.76472">
        <ele>144.34</ele>
        <time>2022-03-09T10:28:42Z</time>
      </trkpt>
      <trkpt lat="45.31676" lon="4.76454">
        <ele>145.78</ele>
        <time>2022-03-09T10:28:28Z</time>
      </trkpt>
      <trkpt lat="45.31675" lon="4.76429">
        <ele>148.66</ele>
        <time>2022-03-09T10:28:09Z</time>
      </trkpt>
      <trkpt lat="45.31693" lon="4.76404">
        <ele>150.1</ele>
        <time>2022-03-09T10:27:52Z</time>
      </trkpt>
      <trkpt lat="45.31695" lon="4.764">
        <ele>150.1</ele>
        <time>2022-03-09T10:27:49Z</time>
      </trkpt>
      <trkpt lat="45.31697" lon="4.76395">
        <ele>150.58</ele>
        <time>2022-03-09T10:27:45Z</time>
      </trkpt>
      <trkpt lat="45.31712" lon="4.76365">
        <ele>151.54</ele>
        <time>2022-03-09T10:27:27Z</time>
      </trkpt>
      <trkpt lat="45.31724" lon="4.76338">
        <ele>153.47</ele>
        <time>2022-03-09T10:27:08Z</time>
      </trkpt>
      <trkpt lat="45.31732" lon="4.76314">
        <ele>156.35</ele>
        <time>2022-03-09T10:26:48Z</time>
      </trkpt>
      <trkpt lat="45.3174" lon="4.76295">
        <ele>158.27</ele>
        <time>2022-03-09T10:26:33Z</time>
      </trkpt>
      <trkpt lat="45.31742" lon="4.76288">
        <ele>158.27</ele>
        <time>2022-03-09T10:26:29Z</time>
      </trkpt>
      <trkpt lat="45.31745" lon="4.76271">
        <ele>160.2</ele>
        <time>2022-03-09T10:26:16Z</time>
      </trkpt>
      <trkpt lat="45.31748" lon="4.76262">
        <ele>161.16</ele>
        <time>2022-03-09T10:26:08Z</time>
      </trkpt>
      <trkpt lat="45.31754" lon="4.76262">
        <ele>161.64</ele>
        <time>2022-03-09T10:25:45Z</time>
      </trkpt>
      <trkpt lat="45.3175" lon="4.76259">
        <ele>161.64</ele>
        <time>2022-03-09T10:25:20Z</time>
      </trkpt>
      <trkpt lat="45.31746" lon="4.76233">
        <ele>163.56</ele>
        <time>2022-03-09T10:25:03Z</time>
      </trkpt>
      <trkpt lat="45.31753" lon="4.76222">
        <ele>165.96</ele>
        <time>2022-03-09T10:24:49Z</time>
      </trkpt>
      <trkpt lat="45.31761" lon="4.76194">
        <ele>168.37</ele>
        <time>2022-03-09T10:24:31Z</time>
      </trkpt>
      <trkpt lat="45.31768" lon="4.76191">
        <ele>170.29</ele>
        <time>2022-03-09T10:24:15Z</time>
      </trkpt>
      <trkpt lat="45.31764" lon="4.76181">
        <ele>169.81</ele>
        <time>2022-03-09T10:23:24Z</time>
      </trkpt>
      <trkpt lat="45.31761" lon="4.76168">
        <ele>170.77</ele>
        <time>2022-03-09T10:23:06Z</time>
      </trkpt>
      <trkpt lat="45.31762" lon="4.76144">
        <ele>172.21</ele>
        <time>2022-03-09T10:22:51Z</time>
      </trkpt>
      <trkpt lat="45.31751" lon="4.76124">
        <ele>175.1</ele>
        <time>2022-03-09T10:22:35Z</time>
      </trkpt>
      <trkpt lat="45.31738" lon="4.76106">
        <ele>176.54</ele>
        <time>2022-03-09T10:22:19Z</time>
      </trkpt>
      <trkpt lat="45.31737" lon="4.76104">
        <ele>176.54</ele>
        <time>2022-03-09T10:22:17Z</time>
      </trkpt>
      <trkpt lat="45.31729" lon="4.76079">
        <ele>178.46</ele>
        <time>2022-03-09T10:22:00Z</time>
      </trkpt>
      <trkpt lat="45.31721" lon="4.7606">
        <ele>180.87</ele>
        <time>2022-03-09T10:21:46Z</time>
      </trkpt>
      <trkpt lat="45.3171" lon="4.76039">
        <ele>183.75</ele>
        <time>2022-03-09T10:21:29Z</time>
      </trkpt>
      <trkpt lat="45.31707" lon="4.76033">
        <ele>184.71</ele>
        <time>2022-03-09T10:21:23Z</time>
      </trkpt>
      <trkpt lat="45.31707" lon="4.7603">
        <ele>184.71</ele>
        <time>2022-03-09T10:21:21Z</time>
      </trkpt>
      <trkpt lat="45.31699" lon="4.76017">
        <ele>188.08</ele>
        <time>2022-03-09T10:21:06Z</time>
      </trkpt>
      <trkpt lat="45.31703" lon="4.75995">
        <ele>191.44</ele>
        <time>2022-03-09T10:20:47Z</time>
      </trkpt>
      <trkpt lat="45.31707" lon="4.75989">
        <ele>191.92</ele>
        <time>2022-03-09T10:20:29Z</time>
      </trkpt>
      <trkpt lat="45.31703" lon="4.75986">
        <ele>193.36</ele>
        <time>2022-03-09T10:20:12Z</time>
      </trkpt>
      <trkpt lat="45.31691" lon="4.75994">
        <ele>195.28</ele>
        <time>2022-03-09T10:19:57Z</time>
      </trkpt>
      <trkpt lat="45.31686" lon="4.75978">
        <ele>198.17</ele>
        <time>2022-03-09T10:19:43Z</time>
      </trkpt>
      <trkpt lat="45.31686" lon="4.75965">
        <ele>200.57</ele>
        <time>2022-03-09T10:19:26Z</time>
      </trkpt>
      <trkpt lat="45.31687" lon="4.75955">
        <ele>201.53</ele>
        <time>2022-03-09T10:19:05Z</time>
      </trkpt>
      <trkpt lat="45.31686" lon="4.75947">
        <ele>203.94</ele>
        <time>2022-03-09T10:18:48Z</time>
      </trkpt>
      <trkpt lat="45.31679" lon="4.75931">
        <ele>205.86</ele>
        <time>2022-03-09T10:18:31Z</time>
      </trkpt>
      <trkpt lat="45.3166" lon="4.75914">
        <ele>208.26</ele>
        <time>2022-03-09T10:18:14Z</time>
      </trkpt>
      <trkpt lat="45.31648" lon="4.759">
        <ele>211.63</ele>
        <time>2022-03-09T10:17:58Z</time>
      </trkpt>
      <trkpt lat="45.31646" lon="4.7589">
        <ele>213.55</ele>
        <time>2022-03-09T10:17:45Z</time>
      </trkpt>
      <trkpt lat="45.31642" lon="4.75868">
        <ele>215.95</ele>
        <time>2022-03-09T10:17:28Z</time>
      </trkpt>
      <trkpt lat="45.31639" lon="4.75858">
        <ele>218.36</ele>
        <time>2022-03-09T10:17:13Z</time>
      </trkpt>
      <trkpt lat="45.3163" lon="4.75843">
        <ele>220.76</ele>
        <time>2022-03-09T10:16:56Z</time>
      </trkpt>
      <trkpt lat="45.31623" lon="4.75828">
        <ele>223.16</ele>
        <time>2022-03-09T10:16:44Z</time>
      </trkpt>
      <trkpt lat="45.31631" lon="4.75822">
        <ele>226.05</ele>
        <time>2022-03-09T10:16:27Z</time>
      </trkpt>
      <trkpt lat="45.31639" lon="4.75825">
        <ele>227.49</ele>
        <time>2022-03-09T10:16:12Z</time>
      </trkpt>
      <trkpt lat="45.31645" lon="4.75825">
        <ele>228.45</ele>
        <time>2022-03-09T10:16:00Z</time>
      </trkpt>
      <trkpt lat="45.31638" lon="4.75813">
        <ele>231.33</ele>
        <time>2022-03-09T10:15:48Z</time>
      </trkpt>
      <trkpt lat="45.31628" lon="4.75802">
        <ele>233.74</ele>
        <time>2022-03-09T10:15:33Z</time>
      </trkpt>
      <trkpt lat="45.31624" lon="4.75794">
        <ele>235.66</ele>
        <time>2022-03-09T10:15:18Z</time>
      </trkpt>
      <trkpt lat="45.31617" lon="4.75784">
        <ele>238.54</ele>
        <time>2022-03-09T10:15:03Z</time>
      </trkpt>
      <trkpt lat="45.31612" lon="4.75777">
        <ele>239.99</ele>
        <time>2022-03-09T10:14:53Z</time>
      </trkpt>
      <trkpt lat="45.31607" lon="4.7577">
        <ele>242.87</ele>
        <time>2022-03-09T10:14:39Z</time>
      </trkpt>
      <trkpt lat="45.31601" lon="4.7576">
        <ele>245.75</ele>
        <time>2022-03-09T10:14:25Z</time>
      </trkpt>
      <trkpt lat="45.31594" lon="4.75742">
        <ele>247.68</ele>
        <time>2022-03-09T10:14:10Z</time>
      </trkpt>
      <trkpt lat="45.3159" lon="4.75735">
        <ele>248.64</ele>
        <time>2022-03-09T10:14:02Z</time>
      </trkpt>
      <trkpt lat="45.31582" lon="4.75723">
        <ele>251.52</ele>
        <time>2022-03-09T10:13:48Z</time>
      </trkpt>
      <trkpt lat="45.31571" lon="4.75716">
        <ele>254.89</ele>
        <time>2022-03-09T10:13:34Z</time>
      </trkpt>
      <trkpt lat="45.3156" lon="4.75708">
        <ele>256.81</ele>
        <time>2022-03-09T10:13:19Z</time>
      </trkpt>
      <trkpt lat="45.3156" lon="4.75705">
        <ele>257.77</ele>
        <time>2022-03-09T10:12:47Z</time>
      </trkpt>
      <trkpt lat="45.31562" lon="4.757">
        <ele>257.77</ele>
        <time>2022-03-09T10:12:32Z</time>
      </trkpt>
      <trkpt lat="45.31557" lon="4.75687">
        <ele>259.69</ele>
        <time>2022-03-09T10:12:17Z</time>
      </trkpt>
      <trkpt lat="45.31553" lon="4.75675">
        <ele>261.62</ele>
        <time>2022-03-09T10:12:07Z</time>
      </trkpt>
      <trkpt lat="45.31547" lon="4.75664">
        <ele>264.5</ele>
        <time>2022-03-09T10:11:53Z</time>
      </trkpt>
      <trkpt lat="45.3154" lon="4.75651">
        <ele>266.9</ele>
        <time>2022-03-09T10:11:39Z</time>
      </trkpt>
      <trkpt lat="45.31533" lon="4.75639">
        <ele>269.79</ele>
        <time>2022-03-09T10:11:26Z</time>
      </trkpt>
      <trkpt lat="45.31526" lon="4.75621">
        <ele>271.23</ele>
        <time>2022-03-09T10:11:09Z</time>
      </trkpt>
      <trkpt lat="45.31523" lon="4.7561">
        <ele>274.11</ele>
        <time>2022-03-09T10:10:57Z</time>
      </trkpt>
      <trkpt lat="45.31516" lon="4.75589">
        <ele>276.52</ele>
        <time>2022-03-09T10:10:40Z</time>
      </trkpt>
      <trkpt lat="45.31515" lon="4.75569">
        <ele>279.4</ele>
        <time>2022-03-09T10:10:24Z</time>
      </trkpt>
      <trkpt lat="45.31518" lon="4.75559">
        <ele>282.77</ele>
        <time>2022-03-09T10:10:14Z</time>
      </trkpt>
      <trkpt lat="45.31511" lon="4.75553">
        <ele>285.17</ele>
        <time>2022-03-09T10:09:58Z</time>
      </trkpt>
      <trkpt lat="45.31501" lon="4.75548">
        <ele>288.05</ele>
        <time>2022-03-09T10:09:43Z</time>
      </trkpt>
      <trkpt lat="45.315" lon="4.75536">
        <ele>290.46</ele>
        <time>2022-03-09T10:09:28Z</time>
      </trkpt>
      <trkpt lat="45.31504" lon="4.75524">
        <ele>292.86</ele>
        <time>2022-03-09T10:09:14Z</time>
      </trkpt>
      <trkpt lat="45.31497" lon="4.75515">
        <ele>295.26</ele>
        <time>2022-03-09T10:09:00Z</time>
      </trkpt>
      <trkpt lat="45.31488" lon="4.75503">
        <ele>298.15</ele>
        <time>2022-03-09T10:08:45Z</time>
      </trkpt>
      <trkpt lat="45.31479" lon="4.75492">
        <ele>300.55</ele>
        <time>2022-03-09T10:08:30Z</time>
      </trkpt>
      <trkpt lat="45.31472" lon="4.75485">
        <ele>303.43</ele>
        <time>2022-03-09T10:08:20Z</time>
      </trkpt>
      <trkpt lat="45.31462" lon="4.7547">
        <ele>305.36</ele>
        <time>2022-03-09T10:08:05Z</time>
      </trkpt>
      <trkpt lat="45.31452" lon="4.75456">
        <ele>307.76</ele>
        <time>2022-03-09T10:07:52Z</time>
      </trkpt>
      <trkpt lat="45.31446" lon="4.7544">
        <ele>309.68</ele>
        <time>2022-03-09T10:07:39Z</time>
      </trkpt>
      <trkpt lat="45.31436" lon="4.75429">
        <ele>311.6</ele>
        <time>2022-03-09T10:07:24Z</time>
      </trkpt>
      <trkpt lat="45.31426" lon="4.7542">
        <ele>314.49</ele>
        <time>2022-03-09T10:07:11Z</time>
      </trkpt>
      <trkpt lat="45.31418" lon="4.75408">
        <ele>316.89</ele>
        <time>2022-03-09T10:06:57Z</time>
      </trkpt>
      <trkpt lat="45.31417" lon="4.75406">
        <ele>316.89</ele>
        <time>2022-03-09T10:06:55Z</time>
      </trkpt>
      <trkpt lat="45.31406" lon="4.75389">
        <ele>317.85</ele>
        <time>2022-03-09T10:06:40Z</time>
      </trkpt>
      <trkpt lat="45.31393" lon="4.75375">
        <ele>319.78</ele>
        <time>2022-03-09T10:06:25Z</time>
      </trkpt>
      <trkpt lat="45.31383" lon="4.75363">
        <ele>320.74</ele>
        <time>2022-03-09T10:06:13Z</time>
      </trkpt>
      <trkpt lat="45.31365" lon="4.75342">
        <ele>321.22</ele>
        <time>2022-03-09T10:05:54Z</time>
      </trkpt>
      <trkpt lat="45.3135" lon="4.75328">
        <ele>321.7</ele>
        <time>2022-03-09T10:05:38Z</time>
      </trkpt>
      <trkpt lat="45.31335" lon="4.75314">
        <ele>322.66</ele>
        <time>2022-03-09T10:05:22Z</time>
      </trkpt>
      <trkpt lat="45.31317" lon="4.75299">
        <ele>325.06</ele>
        <time>2022-03-09T10:05:05Z</time>
      </trkpt>
      <trkpt lat="45.31308" lon="4.75287">
        <ele>325.54</ele>
        <time>2022-03-09T10:04:55Z</time>
      </trkpt>
      <trkpt lat="45.31307" lon="4.75284">
        <ele>326.02</ele>
        <time>2022-03-09T10:04:52Z</time>
      </trkpt>
      <trkpt lat="45.31297" lon="4.75272">
        <ele>327.47</ele>
        <time>2022-03-09T10:04:40Z</time>
      </trkpt>
      <trkpt lat="45.31287" lon="4.75257">
        <ele>327.95</ele>
        <time>2022-03-09T10:04:26Z</time>
      </trkpt>
      <trkpt lat="45.31285" lon="4.75252">
        <ele>328.91</ele>
        <time>2022-03-09T10:04:23Z</time>
      </trkpt>
      <trkpt lat="45.31276" lon="4.75228">
        <ele>328.91</ele>
        <time>2022-03-09T10:04:07Z</time>
      </trkpt>
      <trkpt lat="45.31266" lon="4.75199">
        <ele>328.91</ele>
        <time>2022-03-09T10:03:49Z</time>
      </trkpt>
      <trkpt lat="45.3126" lon="4.75184">
        <ele>329.39</ele>
        <time>2022-03-09T10:03:39Z</time>
      </trkpt>
      <trkpt lat="45.31251" lon="4.75153">
        <ele>329.87</ele>
        <time>2022-03-09T10:03:20Z</time>
      </trkpt>
      <trkpt lat="45.3124" lon="4.75131">
        <ele>329.87</ele>
        <time>2022-03-09T10:03:05Z</time>
      </trkpt>
      <trkpt lat="45.31227" lon="4.75103">
        <ele>329.87</ele>
        <time>2022-03-09T10:02:46Z</time>
      </trkpt>
      <trkpt lat="45.31223" lon="4.75095">
        <ele>329.39</ele>
        <time>2022-03-09T10:02:41Z</time>
      </trkpt>
      <trkpt lat="45.31212" lon="4.75061">
        <ele>330.35</ele>
        <time>2022-03-09T10:02:20Z</time>
      </trkpt>
      <trkpt lat="45.31204" lon="4.75033">
        <ele>331.31</ele>
        <time>2022-03-09T10:02:03Z</time>
      </trkpt>
      <trkpt lat="45.31196" lon="4.7501">
        <ele>331.79</ele>
        <time>2022-03-09T10:01:50Z</time>
      </trkpt>
      <trkpt lat="45.3119" lon="4.74985">
        <ele>332.75</ele>
        <time>2022-03-09T10:01:33Z</time>
      </trkpt>
      <trkpt lat="45.31186" lon="4.74971">
        <ele>332.27</ele>
        <time>2022-03-09T10:01:24Z</time>
      </trkpt>
      <trkpt lat="45.31183" lon="4.74961">
        <ele>332.27</ele>
        <time>2022-03-09T10:01:17Z</time>
      </trkpt>
      <trkpt lat="45.31174" lon="4.74933">
        <ele>332.75</ele>
        <time>2022-03-09T10:01:02Z</time>
      </trkpt>
      <trkpt lat="45.31167" lon="4.74906">
        <ele>332.75</ele>
        <time>2022-03-09T10:00:47Z</time>
      </trkpt>
      <trkpt lat="45.3116" lon="4.74882">
        <ele>333.23</ele>
        <time>2022-03-09T10:00:31Z</time>
      </trkpt>
      <trkpt lat="45.31152" lon="4.74862">
        <ele>333.23</ele>
        <time>2022-03-09T10:00:16Z</time>
      </trkpt>
      <trkpt lat="45.31142" lon="4.7483">
        <ele>334.68</ele>
        <time>2022-03-09T09:59:57Z</time>
      </trkpt>
      <trkpt lat="45.31138" lon="4.74802">
        <ele>335.16</ele>
        <time>2022-03-09T09:59:39Z</time>
      </trkpt>
      <trkpt lat="45.31131" lon="4.74769">
        <ele>338.04</ele>
        <time>2022-03-09T09:59:18Z</time>
      </trkpt>
      <trkpt lat="45.31124" lon="4.74741">
        <ele>339.48</ele>
        <time>2022-03-09T09:59:01Z</time>
      </trkpt>
      <trkpt lat="45.3112" lon="4.74723">
        <ele>340.44</ele>
        <time>2022-03-09T09:58:50Z</time>
      </trkpt>
      <trkpt lat="45.31118" lon="4.74717">
        <ele>340.92</ele>
        <time>2022-03-09T09:58:46Z</time>
      </trkpt>
      <trkpt lat="45.31107" lon="4.74692">
        <ele>341.89</ele>
        <time>2022-03-09T09:58:30Z</time>
      </trkpt>
      <trkpt lat="45.31101" lon="4.74666">
        <ele>341.89</ele>
        <time>2022-03-09T09:58:13Z</time>
      </trkpt>
      <trkpt lat="45.31093" lon="4.7464">
        <ele>341.89</ele>
        <time>2022-03-09T09:57:56Z</time>
      </trkpt>
      <trkpt lat="45.31092" lon="4.74638">
        <ele>341.89</ele>
        <time>2022-03-09T09:57:54Z</time>
      </trkpt>
      <trkpt lat="45.31086" lon="4.7461">
        <ele>342.85</ele>
        <time>2022-03-09T09:57:37Z</time>
      </trkpt>
      <trkpt lat="45.31083" lon="4.7458">
        <ele>342.37</ele>
        <time>2022-03-09T09:57:19Z</time>
      </trkpt>
      <trkpt lat="45.31083" lon="4.7457">
        <ele>342.37</ele>
        <time>2022-03-09T09:57:14Z</time>
      </trkpt>
      <trkpt lat="45.31094" lon="4.74544">
        <ele>341.89</ele>
        <time>2022-03-09T09:56:56Z</time>
      </trkpt>
      <trkpt lat="45.31096" lon="4.74541">
        <ele>341.41</ele>
        <time>2022-03-09T09:56:53Z</time>
      </trkpt>
      <trkpt lat="45.31107" lon="4.74528">
        <ele>340.92</ele>
        <time>2022-03-09T09:56:41Z</time>
      </trkpt>
      <trkpt lat="45.31124" lon="4.74508">
        <ele>339.96</ele>
        <time>2022-03-09T09:56:24Z</time>
      </trkpt>
      <trkpt lat="45.31142" lon="4.74488">
        <ele>339</ele>
        <time>2022-03-09T09:56:05Z</time>
      </trkpt>
      <trkpt lat="45.31148" lon="4.74474">
        <ele>338.52</ele>
        <time>2022-03-09T09:55:58Z</time>
      </trkpt>
      <trkpt lat="45.3115" lon="4.74457">
        <ele>338.52</ele>
        <time>2022-03-09T09:55:46Z</time>
      </trkpt>
      <trkpt lat="45.31155" lon="4.74431">
        <ele>338.52</ele>
        <time>2022-03-09T09:55:30Z</time>
      </trkpt>
      <trkpt lat="45.3116" lon="4.74407">
        <ele>339.48</ele>
        <time>2022-03-09T09:55:14Z</time>
      </trkpt>
      <trkpt lat="45.31164" lon="4.7439">
        <ele>339</ele>
        <time>2022-03-09T09:54:59Z</time>
      </trkpt>
      <trkpt lat="45.31168" lon="4.74373">
        <ele>338.52</ele>
        <time>2022-03-09T09:54:43Z</time>
      </trkpt>
      <trkpt lat="45.31169" lon="4.74363">
        <ele>338.52</ele>
        <time>2022-03-09T09:54:19Z</time>
      </trkpt>
      <trkpt lat="45.3117" lon="4.74345">
        <ele>339</ele>
        <time>2022-03-09T09:53:58Z</time>
      </trkpt>
      <trkpt lat="45.31161" lon="4.74318">
        <ele>338.52</ele>
        <time>2022-03-09T09:53:41Z</time>
      </trkpt>
      <trkpt lat="45.31152" lon="4.74289">
        <ele>338.04</ele>
        <time>2022-03-09T09:53:24Z</time>
      </trkpt>
      <trkpt lat="45.31147" lon="4.74259">
        <ele>338.04</ele>
        <time>2022-03-09T09:53:07Z</time>
      </trkpt>
      <trkpt lat="45.31147" lon="4.74234">
        <ele>339</ele>
        <time>2022-03-09T09:52:53Z</time>
      </trkpt>
      <trkpt lat="45.31148" lon="4.74204">
        <ele>339.96</ele>
        <time>2022-03-09T09:52:35Z</time>
      </trkpt>
      <trkpt lat="45.31149" lon="4.74183">
        <ele>339.96</ele>
        <time>2022-03-09T09:52:22Z</time>
      </trkpt>
      <trkpt lat="45.3115" lon="4.74167">
        <ele>339.96</ele>
        <time>2022-03-09T09:52:06Z</time>
      </trkpt>
      <trkpt lat="45.31152" lon="4.74145">
        <ele>339.48</ele>
        <time>2022-03-09T09:51:49Z</time>
      </trkpt>
      <trkpt lat="45.31153" lon="4.74115">
        <ele>338.04</ele>
        <time>2022-03-09T09:51:32Z</time>
      </trkpt>
      <trkpt lat="45.31155" lon="4.74083">
        <ele>337.56</ele>
        <time>2022-03-09T09:51:15Z</time>
      </trkpt>
      <trkpt lat="45.31154" lon="4.74072">
        <ele>337.08</ele>
        <time>2022-03-09T09:51:08Z</time>
      </trkpt>
      <trkpt lat="45.31154" lon="4.74045">
        <ele>336.12</ele>
        <time>2022-03-09T09:50:53Z</time>
      </trkpt>
      <trkpt lat="45.31156" lon="4.74034">
        <ele>335.64</ele>
        <time>2022-03-09T09:50:41Z</time>
      </trkpt>
      <trkpt lat="45.31157" lon="4.74018">
        <ele>336.12</ele>
        <time>2022-03-09T09:50:25Z</time>
      </trkpt>
      <trkpt lat="45.31157" lon="4.74013">
        <ele>336.6</ele>
        <time>2022-03-09T09:50:06Z</time>
      </trkpt>
      <trkpt lat="45.31164" lon="4.74">
        <ele>336.6</ele>
        <time>2022-03-09T09:49:47Z</time>
      </trkpt>
      <trkpt lat="45.31166" lon="4.73975">
        <ele>336.12</ele>
        <time>2022-03-09T09:49:22Z</time>
      </trkpt>
      <trkpt lat="45.31177" lon="4.73957">
        <ele>337.56</ele>
        <time>2022-03-09T09:49:06Z</time>
      </trkpt>
      <trkpt lat="45.31192" lon="4.7394">
        <ele>340.44</ele>
        <time>2022-03-09T09:48:48Z</time>
      </trkpt>
      <trkpt lat="45.31203" lon="4.73926">
        <ele>343.33</ele>
        <time>2022-03-09T09:48:35Z</time>
      </trkpt>
      <trkpt lat="45.31217" lon="4.7391">
        <ele>345.25</ele>
        <time>2022-03-09T09:48:18Z</time>
      </trkpt>
      <trkpt lat="45.31221" lon="4.73904">
        <ele>345.73</ele>
        <time>2022-03-09T09:48:00Z</time>
      </trkpt>
      <trkpt lat="45.31229" lon="4.73895">
        <ele>346.69</ele>
        <time>2022-03-09T09:47:43Z</time>
      </trkpt>
      <trkpt lat="45.31245" lon="4.73878">
        <ele>348.13</ele>
        <time>2022-03-09T09:47:25Z</time>
      </trkpt>
      <trkpt lat="45.31266" lon="4.73862">
        <ele>348.13</ele>
        <time>2022-03-09T09:47:05Z</time>
      </trkpt>
      <trkpt lat="45.31284" lon="4.73856">
        <ele>348.62</ele>
        <time>2022-03-09T09:46:50Z</time>
      </trkpt>
      <trkpt lat="45.31309" lon="4.73857">
        <ele>350.54</ele>
        <time>2022-03-09T09:46:29Z</time>
      </trkpt>
      <trkpt lat="45.31332" lon="4.73859">
        <ele>351.02</ele>
        <time>2022-03-09T09:46:11Z</time>
      </trkpt>
      <trkpt lat="45.31344" lon="4.73867">
        <ele>351.02</ele>
        <time>2022-03-09T09:45:57Z</time>
      </trkpt>
      <trkpt lat="45.31361" lon="4.73868">
        <ele>351.98</ele>
        <time>2022-03-09T09:45:41Z</time>
      </trkpt>
      <trkpt lat="45.31385" lon="4.73868">
        <ele>352.94</ele>
        <time>2022-03-09T09:45:22Z</time>
      </trkpt>
      <trkpt lat="45.3141" lon="4.73869">
        <ele>353.9</ele>
        <time>2022-03-09T09:45:04Z</time>
      </trkpt>
      <trkpt lat="45.3143" lon="4.7387">
        <ele>354.86</ele>
        <time>2022-03-09T09:44:46Z</time>
      </trkpt>
      <trkpt lat="45.31453" lon="4.73867">
        <ele>356.31</ele>
        <time>2022-03-09T09:44:27Z</time>
      </trkpt>
      <trkpt lat="45.31469" lon="4.73857">
        <ele>357.27</ele>
        <time>2022-03-09T09:44:13Z</time>
      </trkpt>
      <trkpt lat="45.31485" lon="4.73836">
        <ele>358.23</ele>
        <time>2022-03-09T09:43:54Z</time>
      </trkpt>
      <trkpt lat="45.315" lon="4.73814">
        <ele>359.19</ele>
        <time>2022-03-09T09:43:38Z</time>
      </trkpt>
      <trkpt lat="45.31512" lon="4.73793">
        <ele>359.67</ele>
        <time>2022-03-09T09:43:21Z</time>
      </trkpt>
      <trkpt lat="45.31527" lon="4.73775">
        <ele>360.63</ele>
        <time>2022-03-09T09:43:04Z</time>
      </trkpt>
      <trkpt lat="45.31543" lon="4.73763">
        <ele>362.55</ele>
        <time>2022-03-09T09:42:49Z</time>
      </trkpt>
      <trkpt lat="45.31563" lon="4.73755">
        <ele>363.52</ele>
        <time>2022-03-09T09:42:33Z</time>
      </trkpt>
      <trkpt lat="45.31586" lon="4.73751">
        <ele>365.44</ele>
        <time>2022-03-09T09:42:14Z</time>
      </trkpt>
      <trkpt lat="45.31607" lon="4.73744">
        <ele>365.92</ele>
        <time>2022-03-09T09:41:56Z</time>
      </trkpt>
      <trkpt lat="45.31627" lon="4.73735">
        <ele>367.36</ele>
        <time>2022-03-09T09:41:38Z</time>
      </trkpt>
      <trkpt lat="45.31643" lon="4.73712">
        <ele>368.8</ele>
        <time>2022-03-09T09:41:19Z</time>
      </trkpt>
      <trkpt lat="45.31652" lon="4.73688">
        <ele>369.28</ele>
        <time>2022-03-09T09:41:03Z</time>
      </trkpt>
      <trkpt lat="45.31655" lon="4.73662">
        <ele>371.21</ele>
        <time>2022-03-09T09:40:49Z</time>
      </trkpt>
      <trkpt lat="45.31657" lon="4.73655">
        <ele>371.69</ele>
        <time>2022-03-09T09:40:45Z</time>
      </trkpt>
      <trkpt lat="45.31659" lon="4.73632">
        <ele>371.69</ele>
        <time>2022-03-09T09:40:32Z</time>
      </trkpt>
      <trkpt lat="45.31659" lon="4.73628">
        <ele>371.69</ele>
        <time>2022-03-09T09:40:30Z</time>
      </trkpt>
      <trkpt lat="45.31669" lon="4.73614">
        <ele>372.17</ele>
        <time>2022-03-09T09:40:14Z</time>
      </trkpt>
      <trkpt lat="45.31688" lon="4.73597">
        <ele>374.09</ele>
        <time>2022-03-09T09:39:55Z</time>
      </trkpt>
      <trkpt lat="45.31707" lon="4.7358">
        <ele>375.05</ele>
        <time>2022-03-09T09:39:37Z</time>
      </trkpt>
      <trkpt lat="45.3173" lon="4.73562">
        <ele>376.49</ele>
        <time>2022-03-09T09:39:16Z</time>
      </trkpt>
      <trkpt lat="45.31748" lon="4.73546">
        <ele>377.94</ele>
        <time>2022-03-09T09:38:57Z</time>
      </trkpt>
      <trkpt lat="45.31771" lon="4.73534">
        <ele>378.9</ele>
        <time>2022-03-09T09:38:36Z</time>
      </trkpt>
      <trkpt lat="45.3179" lon="4.73526">
        <ele>379.86</ele>
        <time>2022-03-09T09:38:20Z</time>
      </trkpt>
      <trkpt lat="45.31801" lon="4.73521">
        <ele>379.86</ele>
        <time>2022-03-09T09:38:10Z</time>
      </trkpt>
      <trkpt lat="45.31818" lon="4.73509">
        <ele>380.82</ele>
        <time>2022-03-09T09:37:55Z</time>
      </trkpt>
      <trkpt lat="45.31834" lon="4.73492">
        <ele>382.26</ele>
        <time>2022-03-09T09:37:40Z</time>
      </trkpt>
      <trkpt lat="45.3185" lon="4.73473">
        <ele>382.74</ele>
        <time>2022-03-09T09:37:24Z</time>
      </trkpt>
      <trkpt lat="45.31866" lon="4.73465">
        <ele>382.74</ele>
        <time>2022-03-09T09:37:10Z</time>
      </trkpt>
      <trkpt lat="45.31888" lon="4.73464">
        <ele>383.7</ele>
        <time>2022-03-09T09:36:52Z</time>
      </trkpt>
      <trkpt lat="45.31912" lon="4.73467">
        <ele>383.22</ele>
        <time>2022-03-09T09:36:33Z</time>
      </trkpt>
      <trkpt lat="45.31933" lon="4.73467">
        <ele>382.74</ele>
        <time>2022-03-09T09:36:17Z</time>
      </trkpt>
      <trkpt lat="45.31956" lon="4.73458">
        <ele>382.26</ele>
        <time>2022-03-09T09:35:58Z</time>
      </trkpt>
      <trkpt lat="45.31973" lon="4.73451">
        <ele>381.78</ele>
        <time>2022-03-09T09:35:41Z</time>
      </trkpt>
      <trkpt lat="45.31998" lon="4.73438">
        <ele>381.78</ele>
        <time>2022-03-09T09:35:21Z</time>
      </trkpt>
      <trkpt lat="45.32018" lon="4.73429">
        <ele>381.3</ele>
        <time>2022-03-09T09:35:03Z</time>
      </trkpt>
      <trkpt lat="45.32037" lon="4.73411">
        <ele>380.82</ele>
        <time>2022-03-09T09:34:45Z</time>
      </trkpt>
      <trkpt lat="45.32058" lon="4.73387">
        <ele>380.34</ele>
        <time>2022-03-09T09:34:24Z</time>
      </trkpt>
      <trkpt lat="45.32064" lon="4.73378">
        <ele>380.34</ele>
        <time>2022-03-09T09:34:17Z</time>
      </trkpt>
      <trkpt lat="45.32068" lon="4.73379">
        <ele>379.38</ele>
        <time>2022-03-09T09:34:12Z</time>
      </trkpt>
      <trkpt lat="45.32081" lon="4.73391">
        <ele>377.45</ele>
        <time>2022-03-09T09:34:01Z</time>
      </trkpt>
      <trkpt lat="45.32082" lon="4.73392">
        <ele>378.42</ele>
        <time>2022-03-09T09:34:00Z</time>
      </trkpt>
      <trkpt lat="45.321" lon="4.73415">
        <ele>377.94</ele>
        <time>2022-03-09T09:33:40Z</time>
      </trkpt>
      <trkpt lat="45.32116" lon="4.73436">
        <ele>377.45</ele>
        <time>2022-03-09T09:33:21Z</time>
      </trkpt>
      <trkpt lat="45.32133" lon="4.73462">
        <ele>376.01</ele>
        <time>2022-03-09T09:33:01Z</time>
      </trkpt>
      <trkpt lat="45.32136" lon="4.73467">
        <ele>375.53</ele>
        <time>2022-03-09T09:32:57Z</time>
      </trkpt>
      <trkpt lat="45.32144" lon="4.73478">
        <ele>374.57</ele>
        <time>2022-03-09T09:32:47Z</time>
      </trkpt>
      <trkpt lat="45.32157" lon="4.735">
        <ele>373.61</ele>
        <time>2022-03-09T09:32:29Z</time>
      </trkpt>
      <trkpt lat="45.32172" lon="4.73525">
        <ele>372.17</ele>
        <time>2022-03-09T09:32:11Z</time>
      </trkpt>
      <trkpt lat="45.3219" lon="4.73547">
        <ele>370.73</ele>
        <time>2022-03-09T09:31:52Z</time>
      </trkpt>
      <trkpt lat="45.32204" lon="4.73564">
        <ele>369.76</ele>
        <time>2022-03-09T09:31:36Z</time>
      </trkpt>
      <trkpt lat="45.32223" lon="4.73585">
        <ele>369.28</ele>
        <time>2022-03-09T09:31:17Z</time>
      </trkpt>
      <trkpt lat="45.3224" lon="4.73605">
        <ele>369.28</ele>
        <time>2022-03-09T09:31:00Z</time>
      </trkpt>
      <trkpt lat="45.32257" lon="4.73625">
        <ele>368.32</ele>
        <time>2022-03-09T09:30:42Z</time>
      </trkpt>
      <trkpt lat="45.32262" lon="4.73628">
        <ele>368.32</ele>
        <time>2022-03-09T09:30:37Z</time>
      </trkpt>
      <trkpt lat="45.32273" lon="4.73641">
        <ele>368.32</ele>
        <time>2022-03-09T09:30:26Z</time>
      </trkpt>
      <trkpt lat="45.32288" lon="4.73662">
        <ele>368.32</ele>
        <time>2022-03-09T09:30:08Z</time>
      </trkpt>
      <trkpt lat="45.32304" lon="4.73691">
        <ele>367.84</ele>
        <time>2022-03-09T09:29:47Z</time>
      </trkpt>
      <trkpt lat="45.32315" lon="4.73717">
        <ele>367.36</ele>
        <time>2022-03-09T09:29:30Z</time>
      </trkpt>
      <trkpt lat="45.32325" lon="4.73746">
        <ele>366.88</ele>
        <time>2022-03-09T09:29:13Z</time>
      </trkpt>
      <trkpt lat="45.32339" lon="4.73765">
        <ele>366.88</ele>
        <time>2022-03-09T09:28:57Z</time>
      </trkpt>
      <trkpt lat="45.32356" lon="4.73789">
        <ele>367.84</ele>
        <time>2022-03-09T09:28:37Z</time>
      </trkpt>
      <trkpt lat="45.32375" lon="4.73812">
        <ele>366.4</ele>
        <time>2022-03-09T09:28:18Z</time>
      </trkpt>
      <trkpt lat="45.32385" lon="4.73828">
        <ele>366.88</ele>
        <time>2022-03-09T09:28:06Z</time>
      </trkpt>
      <trkpt lat="45.32399" lon="4.7385">
        <ele>366.88</ele>
        <time>2022-03-09T09:27:49Z</time>
      </trkpt>
      <trkpt lat="45.32399" lon="4.73875">
        <ele>366.88</ele>
        <time>2022-03-09T09:27:33Z</time>
      </trkpt>
      <trkpt lat="45.32398" lon="4.73898">
        <ele>365.92</ele>
        <time>2022-03-09T09:27:19Z</time>
      </trkpt>
      <trkpt lat="45.32399" lon="4.73906">
        <ele>365.92</ele>
        <time>2022-03-09T09:27:15Z</time>
      </trkpt>
      <trkpt lat="45.32402" lon="4.73934">
        <ele>365.44</ele>
        <time>2022-03-09T09:26:58Z</time>
      </trkpt>
      <trkpt lat="45.32404" lon="4.7395">
        <ele>365.92</ele>
        <time>2022-03-09T09:26:50Z</time>
      </trkpt>
      <trkpt lat="45.32412" lon="4.73976">
        <ele>365.44</ele>
        <time>2022-03-09T09:26:35Z</time>
      </trkpt>
      <trkpt lat="45.32422" lon="4.74006">
        <ele>365.44</ele>
        <time>2022-03-09T09:26:16Z</time>
      </trkpt>
      <trkpt lat="45.3243" lon="4.74027">
        <ele>365.44</ele>
        <time>2022-03-09T09:26:02Z</time>
      </trkpt>
      <trkpt lat="45.32445" lon="4.74061">
        <ele>364</ele>
        <time>2022-03-09T09:25:42Z</time>
      </trkpt>
      <trkpt lat="45.3246" lon="4.74079">
        <ele>363.52</ele>
        <time>2022-03-09T09:25:25Z</time>
      </trkpt>
      <trkpt lat="45.32478" lon="4.7409">
        <ele>362.07</ele>
        <time>2022-03-09T09:25:08Z</time>
      </trkpt>
      <trkpt lat="45.32494" lon="4.74096">
        <ele>362.07</ele>
        <time>2022-03-09T09:24:55Z</time>
      </trkpt>
      <trkpt lat="45.32513" lon="4.74113">
        <ele>361.59</ele>
        <time>2022-03-09T09:24:38Z</time>
      </trkpt>
      <trkpt lat="45.32526" lon="4.74126">
        <ele>361.59</ele>
        <time>2022-03-09T09:24:24Z</time>
      </trkpt>
      <trkpt lat="45.32531" lon="4.7413">
        <ele>361.59</ele>
        <time>2022-03-09T09:24:20Z</time>
      </trkpt>
      <trkpt lat="45.32537" lon="4.74143">
        <ele>360.63</ele>
        <time>2022-03-09T09:24:10Z</time>
      </trkpt>
      <trkpt lat="45.32553" lon="4.74164">
        <ele>360.63</ele>
        <time>2022-03-09T09:23:52Z</time>
      </trkpt>
      <trkpt lat="45.32569" lon="4.74184">
        <ele>359.67</ele>
        <time>2022-03-09T09:23:36Z</time>
      </trkpt>
      <trkpt lat="45.32584" lon="4.74209">
        <ele>358.71</ele>
        <time>2022-03-09T09:23:18Z</time>
      </trkpt>
      <trkpt lat="45.32602" lon="4.74222">
        <ele>358.71</ele>
        <time>2022-03-09T09:23:01Z</time>
      </trkpt>
      <trkpt lat="45.32621" lon="4.74232">
        <ele>359.19</ele>
        <time>2022-03-09T09:22:45Z</time>
      </trkpt>
      <trkpt lat="45.32644" lon="4.74245">
        <ele>358.71</ele>
        <time>2022-03-09T09:22:25Z</time>
      </trkpt>
      <trkpt lat="45.32646" lon="4.74248">
        <ele>359.19</ele>
        <time>2022-03-09T09:22:22Z</time>
      </trkpt>
      <trkpt lat="45.32666" lon="4.74254">
        <ele>358.71</ele>
        <time>2022-03-09T09:22:10Z</time>
      </trkpt>
      <trkpt lat="45.32683" lon="4.74262">
        <ele>359.19</ele>
        <time>2022-03-09T09:21:56Z</time>
      </trkpt>
      <trkpt lat="45.32694" lon="4.74266">
        <ele>358.71</ele>
        <time>2022-03-09T09:21:44Z</time>
      </trkpt>
      <trkpt lat="45.32711" lon="4.74274">
        <ele>359.19</ele>
        <time>2022-03-09T09:21:28Z</time>
      </trkpt>
      <trkpt lat="45.32712" lon="4.74278">
        <ele>358.23</ele>
        <time>2022-03-09T09:21:25Z</time>
      </trkpt>
      <trkpt lat="45.32719" lon="4.743">
        <ele>358.71</ele>
        <time>2022-03-09T09:21:09Z</time>
      </trkpt>
      <trkpt lat="45.32719" lon="4.74303">
        <ele>358.71</ele>
        <time>2022-03-09T09:21:07Z</time>
      </trkpt>
      <trkpt lat="45.32726" lon="4.74321">
        <ele>358.71</ele>
        <time>2022-03-09T09:20:53Z</time>
      </trkpt>
      <trkpt lat="45.32728" lon="4.74348">
        <ele>357.75</ele>
        <time>2022-03-09T09:20:36Z</time>
      </trkpt>
      <trkpt lat="45.3273" lon="4.74353">
        <ele>357.75</ele>
        <time>2022-03-09T09:20:26Z</time>
      </trkpt>
      <trkpt lat="45.3273" lon="4.7436">
        <ele>357.75</ele>
        <time>2022-03-09T09:20:01Z</time>
      </trkpt>
      <trkpt lat="45.32728" lon="4.74369">
        <ele>357.75</ele>
        <time>2022-03-09T09:19:45Z</time>
      </trkpt>
      <trkpt lat="45.32721" lon="4.7439">
        <ele>356.79</ele>
        <time>2022-03-09T09:19:30Z</time>
      </trkpt>
      <trkpt lat="45.32712" lon="4.74414">
        <ele>356.31</ele>
        <time>2022-03-09T09:19:13Z</time>
      </trkpt>
      <trkpt lat="45.3271" lon="4.74421">
        <ele>356.31</ele>
        <time>2022-03-09T09:19:08Z</time>
      </trkpt>
      <trkpt lat="45.3271" lon="4.7445">
        <ele>355.34</ele>
        <time>2022-03-09T09:18:51Z</time>
      </trkpt>
      <trkpt lat="45.32711" lon="4.74452">
        <ele>354.86</ele>
        <time>2022-03-09T09:18:44Z</time>
      </trkpt>
      <trkpt lat="45.32711" lon="4.74454">
        <ele>354.38</ele>
        <time>2022-03-09T09:18:31Z</time>
      </trkpt>
      <trkpt lat="45.3271" lon="4.74453">
        <ele>354.38</ele>
        <time>2022-03-09T09:18:05Z</time>
      </trkpt>
      <trkpt lat="45.32708" lon="4.74474">
        <ele>354.38</ele>
        <time>2022-03-09T09:17:49Z</time>
      </trkpt>
      <trkpt lat="45.32707" lon="4.74481">
        <ele>353.9</ele>
        <time>2022-03-09T09:17:45Z</time>
      </trkpt>
      <trkpt lat="45.32706" lon="4.74511">
        <ele>351.98</ele>
        <time>2022-03-09T09:17:27Z</time>
      </trkpt>
      <trkpt lat="45.32707" lon="4.74516">
        <ele>351.98</ele>
        <time>2022-03-09T09:17:24Z</time>
      </trkpt>
      <trkpt lat="45.32706" lon="4.74538">
        <ele>351.02</ele>
        <time>2022-03-09T09:17:11Z</time>
      </trkpt>
      <trkpt lat="45.32704" lon="4.74561">
        <ele>349.58</ele>
        <time>2022-03-09T09:16:57Z</time>
      </trkpt>
      <trkpt lat="45.32702" lon="4.74572">
        <ele>348.13</ele>
        <time>2022-03-09T09:16:49Z</time>
      </trkpt>
      <trkpt lat="45.327" lon="4.74579">
        <ele>347.65</ele>
        <time>2022-03-09T09:16:44Z</time>
      </trkpt>
      <trkpt lat="45.32677" lon="4.74582">
        <ele>347.17</ele>
        <time>2022-03-09T09:16:23Z</time>
      </trkpt>
      <trkpt lat="45.32663" lon="4.74577">
        <ele>345.73</ele>
        <time>2022-03-09T09:16:11Z</time>
      </trkpt>
      <trkpt lat="45.32645" lon="4.74568">
        <ele>344.77</ele>
        <time>2022-03-09T09:15:55Z</time>
      </trkpt>
      <trkpt lat="45.32629" lon="4.74573">
        <ele>344.29</ele>
        <time>2022-03-09T09:15:39Z</time>
      </trkpt>
      <trkpt lat="45.32612" lon="4.74588">
        <ele>342.37</ele>
        <time>2022-03-09T09:15:22Z</time>
      </trkpt>
      <trkpt lat="45.32608" lon="4.74593">
        <ele>341.41</ele>
        <time>2022-03-09T09:15:17Z</time>
      </trkpt>
      <trkpt lat="45.32592" lon="4.74609">
        <ele>339</ele>
        <time>2022-03-09T09:14:59Z</time>
      </trkpt>
      <trkpt lat="45.32576" lon="4.74616">
        <ele>336.6</ele>
        <time>2022-03-09T09:14:44Z</time>
      </trkpt>
      <trkpt lat="45.32558" lon="4.74613">
        <ele>336.12</ele>
        <time>2022-03-09T09:14:28Z</time>
      </trkpt>
      <trkpt lat="45.32545" lon="4.74624">
        <ele>336.12</ele>
        <time>2022-03-09T09:14:13Z</time>
      </trkpt>
      <trkpt lat="45.32546" lon="4.74646">
        <ele>334.68</ele>
        <time>2022-03-09T09:14:00Z</time>
      </trkpt>
      <trkpt lat="45.32547" lon="4.74667">
        <ele>333.71</ele>
        <time>2022-03-09T09:13:46Z</time>
      </trkpt>
      <trkpt lat="45.3255" lon="4.74699">
        <ele>331.79</ele>
        <time>2022-03-09T09:13:30Z</time>
      </trkpt>
      <trkpt lat="45.3255" lon="4.74717">
        <ele>331.79</ele>
        <time>2022-03-09T09:13:17Z</time>
      </trkpt>
      <trkpt lat="45.3255" lon="4.74736">
        <ele>331.79</ele>
        <time>2022-03-09T09:13:04Z</time>
      </trkpt>
      <trkpt lat="45.32549" lon="4.74761">
        <ele>332.27</ele>
        <time>2022-03-09T09:12:49Z</time>
      </trkpt>
      <trkpt lat="45.32547" lon="4.74787">
        <ele>330.35</ele>
        <time>2022-03-09T09:12:33Z</time>
      </trkpt>
      <trkpt lat="45.32543" lon="4.748">
        <ele>330.35</ele>
        <time>2022-03-09T09:12:24Z</time>
      </trkpt>
      <trkpt lat="45.32543" lon="4.74808">
        <ele>330.35</ele>
        <time>2022-03-09T09:12:19Z</time>
      </trkpt>
      <trkpt lat="45.3254" lon="4.74823">
        <ele>329.87</ele>
        <time>2022-03-09T09:12:10Z</time>
      </trkpt>
      <trkpt lat="45.32534" lon="4.74852">
        <ele>329.87</ele>
        <time>2022-03-09T09:11:53Z</time>
      </trkpt>
      <trkpt lat="45.32527" lon="4.74868">
        <ele>329.39</ele>
        <time>2022-03-09T09:11:42Z</time>
      </trkpt>
      <trkpt lat="45.32514" lon="4.74887">
        <ele>329.87</ele>
        <time>2022-03-09T09:11:26Z</time>
      </trkpt>
      <trkpt lat="45.32505" lon="4.74902">
        <ele>327.47</ele>
        <time>2022-03-09T09:11:13Z</time>
      </trkpt>
      <trkpt lat="45.32504" lon="4.74931">
        <ele>326.02</ele>
        <time>2022-03-09T09:10:54Z</time>
      </trkpt>
      <trkpt lat="45.32507" lon="4.74961">
        <ele>323.14</ele>
        <time>2022-03-09T09:10:36Z</time>
      </trkpt>
      <trkpt lat="45.32511" lon="4.74971">
        <ele>322.18</ele>
        <time>2022-03-09T09:10:28Z</time>
      </trkpt>
      <trkpt lat="45.32524" lon="4.74986">
        <ele>320.26</ele>
        <time>2022-03-09T09:10:13Z</time>
      </trkpt>
      <trkpt lat="45.32542" lon="4.74999">
        <ele>318.33</ele>
        <time>2022-03-09T09:09:56Z</time>
      </trkpt>
      <trkpt lat="45.32559" lon="4.75008">
        <ele>316.89</ele>
        <time>2022-03-09T09:09:40Z</time>
      </trkpt>
      <trkpt lat="45.32573" lon="4.75028">
        <ele>316.89</ele>
        <time>2022-03-09T09:09:23Z</time>
      </trkpt>
      <trkpt lat="45.32578" lon="4.75046">
        <ele>315.93</ele>
        <time>2022-03-09T09:09:10Z</time>
      </trkpt>
      <trkpt lat="45.32582" lon="4.75076">
        <ele>313.53</ele>
        <time>2022-03-09T09:08:50Z</time>
      </trkpt>
      <trkpt lat="45.32581" lon="4.75094">
        <ele>312.57</ele>
        <time>2022-03-09T09:08:40Z</time>
      </trkpt>
      <trkpt lat="45.32575" lon="4.7511">
        <ele>312.57</ele>
        <time>2022-03-09T09:08:30Z</time>
      </trkpt>
      <trkpt lat="45.32573" lon="4.75113">
        <ele>311.6</ele>
        <time>2022-03-09T09:08:27Z</time>
      </trkpt>
      <trkpt lat="45.32568" lon="4.75138">
        <ele>311.12</ele>
        <time>2022-03-09T09:08:11Z</time>
      </trkpt>
      <trkpt lat="45.32562" lon="4.75165">
        <ele>310.16</ele>
        <time>2022-03-09T09:07:54Z</time>
      </trkpt>
      <trkpt lat="45.32556" lon="4.75186">
        <ele>309.2</ele>
        <time>2022-03-09T09:07:40Z</time>
      </trkpt>
      <trkpt lat="45.32555" lon="4.75191">
        <ele>309.2</ele>
        <time>2022-03-09T09:07:37Z</time>
      </trkpt>
      <trkpt lat="45.3255" lon="4.75214">
        <ele>308.24</ele>
        <time>2022-03-09T09:07:24Z</time>
      </trkpt>
      <trkpt lat="45.32543" lon="4.75246">
        <ele>308.24</ele>
        <time>2022-03-09T09:07:05Z</time>
      </trkpt>
      <trkpt lat="45.32541" lon="4.75251">
        <ele>307.76</ele>
        <time>2022-03-09T09:07:01Z</time>
      </trkpt>
      <trkpt lat="45.3254" lon="4.75256">
        <ele>307.28</ele>
        <time>2022-03-09T09:06:57Z</time>
      </trkpt>
      <trkpt lat="45.32539" lon="4.7528">
        <ele>304.88</ele>
        <time>2022-03-09T09:06:41Z</time>
      </trkpt>
      <trkpt lat="45.3254" lon="4.75299">
        <ele>302.47</ele>
        <time>2022-03-09T09:06:26Z</time>
      </trkpt>
      <trkpt lat="45.32541" lon="4.75302">
        <ele>301.51</ele>
        <time>2022-03-09T09:06:23Z</time>
      </trkpt>
      <trkpt lat="45.32541" lon="4.75323">
        <ele>299.11</ele>
        <time>2022-03-09T09:06:07Z</time>
      </trkpt>
      <trkpt lat="45.32543" lon="4.75343">
        <ele>295.74</ele>
        <time>2022-03-09T09:05:53Z</time>
      </trkpt>
      <trkpt lat="45.32542" lon="4.7535">
        <ele>294.78</ele>
        <time>2022-03-09T09:05:47Z</time>
      </trkpt>
      <trkpt lat="45.3254" lon="4.75358">
        <ele>294.78</ele>
        <time>2022-03-09T09:05:34Z</time>
      </trkpt>
      <trkpt lat="45.32536" lon="4.75359">
        <ele>294.3</ele>
        <time>2022-03-09T09:05:19Z</time>
      </trkpt>
      <trkpt lat="45.32523" lon="4.75369">
        <ele>290.94</ele>
        <time>2022-03-09T09:05:02Z</time>
      </trkpt>
      <trkpt lat="45.32511" lon="4.75383">
        <ele>288.05</ele>
        <time>2022-03-09T09:04:45Z</time>
      </trkpt>
      <trkpt lat="45.32502" lon="4.75399">
        <ele>285.17</ele>
        <time>2022-03-09T09:04:30Z</time>
      </trkpt>
      <trkpt lat="45.32491" lon="4.75416">
        <ele>281.8</ele>
        <time>2022-03-09T09:04:13Z</time>
      </trkpt>
      <trkpt lat="45.32473" lon="4.75428">
        <ele>279.4</ele>
        <time>2022-03-09T09:03:55Z</time>
      </trkpt>
      <trkpt lat="45.32473" lon="4.7543">
        <ele>279.4</ele>
        <time>2022-03-09T09:03:54Z</time>
      </trkpt>
      <trkpt lat="45.32469" lon="4.7543">
        <ele>279.4</ele>
        <time>2022-03-09T09:03:34Z</time>
      </trkpt>
      <trkpt lat="45.3247" lon="4.75429">
        <ele>279.4</ele>
        <time>2022-03-09T09:03:16Z</time>
      </trkpt>
      <trkpt lat="45.32468" lon="4.75429">
        <ele>278.44</ele>
        <time>2022-03-09T09:03:09Z</time>
      </trkpt>
      <trkpt lat="45.32469" lon="4.7543">
        <ele>277.96</ele>
        <time>2022-03-09T09:02:32Z</time>
      </trkpt>
      <trkpt lat="45.32469" lon="4.75427">
        <ele>278.44</ele>
        <time>2022-03-09T09:01:59Z</time>
      </trkpt>
      <trkpt lat="45.32468" lon="4.7543">
        <ele>278.44</ele>
        <time>2022-03-09T09:01:21Z</time>
      </trkpt>
      <trkpt lat="45.3247" lon="4.7543">
        <ele>278.44</ele>
        <time>2022-03-09T09:01:08Z</time>
      </trkpt>
      <trkpt lat="45.32467" lon="4.75426">
        <ele>278.44</ele>
        <time>2022-03-09T09:00:53Z</time>
      </trkpt>
      <trkpt lat="45.32447" lon="4.75422">
        <ele>277.48</ele>
        <time>2022-03-09T09:00:36Z</time>
      </trkpt>
      <trkpt lat="45.32427" lon="4.75434">
        <ele>275.56</ele>
        <time>2022-03-09T09:00:17Z</time>
      </trkpt>
      <trkpt lat="45.32413" lon="4.75445">
        <ele>273.15</ele>
        <time>2022-03-09T09:00:01Z</time>
      </trkpt>
      <trkpt lat="45.32397" lon="4.7546">
        <ele>270.75</ele>
        <time>2022-03-09T08:59:43Z</time>
      </trkpt>
      <trkpt lat="45.32383" lon="4.75476">
        <ele>267.86</ele>
        <time>2022-03-09T08:59:25Z</time>
      </trkpt>
      <trkpt lat="45.3237" lon="4.7549">
        <ele>265.46</ele>
        <time>2022-03-09T08:59:08Z</time>
      </trkpt>
      <trkpt lat="45.32355" lon="4.75499">
        <ele>262.1</ele>
        <time>2022-03-09T08:58:51Z</time>
      </trkpt>
      <trkpt lat="45.32337" lon="4.75498">
        <ele>260.65</ele>
        <time>2022-03-09T08:58:35Z</time>
      </trkpt>
      <trkpt lat="45.32327" lon="4.75495">
        <ele>259.69</ele>
        <time>2022-03-09T08:58:26Z</time>
      </trkpt>
      <trkpt lat="45.3232" lon="4.75492">
        <ele>258.25</ele>
        <time>2022-03-09T08:58:19Z</time>
      </trkpt>
      <trkpt lat="45.32306" lon="4.75478">
        <ele>257.29</ele>
        <time>2022-03-09T08:58:02Z</time>
      </trkpt>
      <trkpt lat="45.32301" lon="4.75472">
        <ele>256.81</ele>
        <time>2022-03-09T08:57:57Z</time>
      </trkpt>
      <trkpt lat="45.32295" lon="4.75461">
        <ele>255.85</ele>
        <time>2022-03-09T08:57:48Z</time>
      </trkpt>
      <trkpt lat="45.32289" lon="4.75451">
        <ele>254.89</ele>
        <time>2022-03-09T08:57:39Z</time>
      </trkpt>
      <trkpt lat="45.32275" lon="4.75437">
        <ele>253.93</ele>
        <time>2022-03-09T08:57:26Z</time>
      </trkpt>
      <trkpt lat="45.3226" lon="4.75427">
        <ele>254.41</ele>
        <time>2022-03-09T08:57:11Z</time>
      </trkpt>
      <trkpt lat="45.32243" lon="4.75428">
        <ele>253.44</ele>
        <time>2022-03-09T08:56:54Z</time>
      </trkpt>
      <trkpt lat="45.32235" lon="4.75441">
        <ele>252.96</ele>
        <time>2022-03-09T08:56:41Z</time>
      </trkpt>
      <trkpt lat="45.32239" lon="4.75455">
        <ele>252.48</ele>
        <time>2022-03-09T08:56:26Z</time>
      </trkpt>
      <trkpt lat="45.32248" lon="4.75476">
        <ele>252.96</ele>
        <time>2022-03-09T08:56:10Z</time>
      </trkpt>
      <trkpt lat="45.32254" lon="4.75489">
        <ele>252.48</ele>
        <time>2022-03-09T08:56:00Z</time>
      </trkpt>
      <trkpt lat="45.32263" lon="4.75509">
        <ele>251.04</ele>
        <time>2022-03-09T08:55:44Z</time>
      </trkpt>
      <trkpt lat="45.32266" lon="4.75521">
        <ele>250.56</ele>
        <time>2022-03-09T08:55:28Z</time>
      </trkpt>
      <trkpt lat="45.3227" lon="4.75527">
        <ele>249.6</ele>
        <time>2022-03-09T08:55:13Z</time>
      </trkpt>
      <trkpt lat="45.32275" lon="4.75538">
        <ele>248.16</ele>
        <time>2022-03-09T08:55:06Z</time>
      </trkpt>
      <trkpt lat="45.32282" lon="4.75558">
        <ele>246.23</ele>
        <time>2022-03-09T08:54:50Z</time>
      </trkpt>
      <trkpt lat="45.3229" lon="4.75576">
        <ele>244.31</ele>
        <time>2022-03-09T08:54:34Z</time>
      </trkpt>
      <trkpt lat="45.32299" lon="4.75595">
        <ele>241.91</ele>
        <time>2022-03-09T08:54:18Z</time>
      </trkpt>
      <trkpt lat="45.32307" lon="4.75612">
        <ele>239.99</ele>
        <time>2022-03-09T08:54:03Z</time>
      </trkpt>
      <trkpt lat="45.32316" lon="4.7563">
        <ele>238.54</ele>
        <time>2022-03-09T08:53:47Z</time>
      </trkpt>
      <trkpt lat="45.32325" lon="4.75647">
        <ele>235.18</ele>
        <time>2022-03-09T08:53:32Z</time>
      </trkpt>
      <trkpt lat="45.32312" lon="4.75658">
        <ele>233.26</ele>
        <time>2022-03-09T08:53:14Z</time>
      </trkpt>
      <trkpt lat="45.32291" lon="4.75653">
        <ele>232.78</ele>
        <time>2022-03-09T08:52:55Z</time>
      </trkpt>
      <trkpt lat="45.32278" lon="4.75644">
        <ele>230.37</ele>
        <time>2022-03-09T08:52:39Z</time>
      </trkpt>
      <trkpt lat="45.3226" lon="4.75634">
        <ele>229.41</ele>
        <time>2022-03-09T08:52:23Z</time>
      </trkpt>
      <trkpt lat="45.32246" lon="4.75631">
        <ele>227.49</ele>
        <time>2022-03-09T08:52:08Z</time>
      </trkpt>
      <trkpt lat="45.32228" lon="4.75631">
        <ele>226.05</ele>
        <time>2022-03-09T08:51:54Z</time>
      </trkpt>
      <trkpt lat="45.32212" lon="4.75642">
        <ele>224.12</ele>
        <time>2022-03-09T08:51:37Z</time>
      </trkpt>
      <trkpt lat="45.32202" lon="4.75652">
        <ele>222.68</ele>
        <time>2022-03-09T08:51:23Z</time>
      </trkpt>
      <trkpt lat="45.32193" lon="4.7567">
        <ele>219.8</ele>
        <time>2022-03-09T08:51:07Z</time>
      </trkpt>
      <trkpt lat="45.32184" lon="4.75685">
        <ele>217.4</ele>
        <time>2022-03-09T08:50:52Z</time>
      </trkpt>
      <trkpt lat="45.3219" lon="4.757">
        <ele>214.99</ele>
        <time>2022-03-09T08:50:36Z</time>
      </trkpt>
      <trkpt lat="45.32204" lon="4.75713">
        <ele>212.11</ele>
        <time>2022-03-09T08:50:18Z</time>
      </trkpt>
      <trkpt lat="45.32215" lon="4.75729">
        <ele>209.7</ele>
        <time>2022-03-09T08:50:01Z</time>
      </trkpt>
      <trkpt lat="45.32222" lon="4.75748">
        <ele>207.78</ele>
        <time>2022-03-09T08:49:44Z</time>
      </trkpt>
      <trkpt lat="45.32223" lon="4.7577">
        <ele>206.34</ele>
        <time>2022-03-09T08:49:28Z</time>
      </trkpt>
      <trkpt lat="45.32222" lon="4.75788">
        <ele>203.46</ele>
        <time>2022-03-09T08:49:14Z</time>
      </trkpt>
      <trkpt lat="45.32214" lon="4.75809">
        <ele>201.53</ele>
        <time>2022-03-09T08:48:57Z</time>
      </trkpt>
      <trkpt lat="45.32203" lon="4.75828">
        <ele>200.09</ele>
        <time>2022-03-09T08:48:42Z</time>
      </trkpt>
      <trkpt lat="45.32194" lon="4.75853">
        <ele>199.13</ele>
        <time>2022-03-09T08:48:24Z</time>
      </trkpt>
      <trkpt lat="45.32188" lon="4.75878">
        <ele>197.69</ele>
        <time>2022-03-09T08:48:07Z</time>
      </trkpt>
      <trkpt lat="45.32174" lon="4.75895">
        <ele>197.69</ele>
        <time>2022-03-09T08:47:50Z</time>
      </trkpt>
      <trkpt lat="45.32158" lon="4.75905">
        <ele>196.73</ele>
        <time>2022-03-09T08:47:36Z</time>
      </trkpt>
      <trkpt lat="45.32145" lon="4.75917">
        <ele>195.28</ele>
        <time>2022-03-09T08:47:19Z</time>
      </trkpt>
      <trkpt lat="45.32136" lon="4.75935">
        <ele>193.84</ele>
        <time>2022-03-09T08:47:03Z</time>
      </trkpt>
      <trkpt lat="45.32126" lon="4.75955">
        <ele>191.92</ele>
        <time>2022-03-09T08:46:46Z</time>
      </trkpt>
      <trkpt lat="45.32117" lon="4.75974">
        <ele>190</ele>
        <time>2022-03-09T08:46:31Z</time>
      </trkpt>
      <trkpt lat="45.32105" lon="4.75988">
        <ele>188.08</ele>
        <time>2022-03-09T08:46:15Z</time>
      </trkpt>
      <trkpt lat="45.3209" lon="4.75999">
        <ele>185.19</ele>
        <time>2022-03-09T08:45:58Z</time>
      </trkpt>
      <trkpt lat="45.32077" lon="4.7601">
        <ele>183.27</ele>
        <time>2022-03-09T08:45:42Z</time>
      </trkpt>
      <trkpt lat="45.32061" lon="4.76025">
        <ele>179.9</ele>
        <time>2022-03-09T08:45:23Z</time>
      </trkpt>
      <trkpt lat="45.32048" lon="4.76037">
        <ele>177.5</ele>
        <time>2022-03-09T08:45:05Z</time>
      </trkpt>
      <trkpt lat="45.32037" lon="4.76047">
        <ele>176.06</ele>
        <time>2022-03-09T08:44:51Z</time>
      </trkpt>
      <trkpt lat="45.32024" lon="4.76052">
        <ele>174.14</ele>
        <time>2022-03-09T08:44:38Z</time>
      </trkpt>
      <trkpt lat="45.32008" lon="4.76068">
        <ele>172.69</ele>
        <time>2022-03-09T08:44:19Z</time>
      </trkpt>
      <trkpt lat="45.31999" lon="4.76071">
        <ele>171.25</ele>
        <time>2022-03-09T08:44:08Z</time>
      </trkpt>
      <trkpt lat="45.31982" lon="4.76086">
        <ele>168.37</ele>
        <time>2022-03-09T08:43:48Z</time>
      </trkpt>
      <trkpt lat="45.31971" lon="4.76095">
        <ele>165.48</ele>
        <time>2022-03-09T08:43:33Z</time>
      </trkpt>
      <trkpt lat="45.31961" lon="4.76104">
        <ele>163.08</ele>
        <time>2022-03-09T08:43:15Z</time>
      </trkpt>
      <trkpt lat="45.3195" lon="4.76117">
        <ele>160.68</ele>
        <time>2022-03-09T08:42:59Z</time>
      </trkpt>
      <trkpt lat="45.31936" lon="4.76128">
        <ele>157.79</ele>
        <time>2022-03-09T08:42:42Z</time>
      </trkpt>
      <trkpt lat="45.31932" lon="4.76137">
        <ele>156.83</ele>
        <time>2022-03-09T08:42:12Z</time>
      </trkpt>
      <trkpt lat="45.31932" lon="4.76133">
        <ele>155.87</ele>
        <time>2022-03-09T08:41:36Z</time>
      </trkpt>
      <trkpt lat="45.31934" lon="4.76131">
        <ele>155.87</ele>
        <time>2022-03-09T08:41:10Z</time>
      </trkpt>
      <trkpt lat="45.31931" lon="4.76133">
        <ele>155.39</ele>
        <time>2022-03-09T08:40:47Z</time>
      </trkpt>
      <trkpt lat="45.3193" lon="4.76134">
        <ele>153.95</ele>
        <time>2022-03-09T08:40:15Z</time>
      </trkpt>
      <trkpt lat="45.31932" lon="4.76133">
        <ele>153.95</ele>
        <time>2022-03-09T08:39:39Z</time>
      </trkpt>
      <trkpt lat="45.31923" lon="4.76139">
        <ele>153.47</ele>
        <time>2022-03-09T08:39:19Z</time>
      </trkpt>
      <trkpt lat="45.31921" lon="4.76142">
        <ele>152.99</ele>
        <time>2022-03-09T08:39:10Z</time>
      </trkpt>
      <trkpt lat="45.31916" lon="4.76154">
        <ele>151.06</ele>
        <time>2022-03-09T08:38:54Z</time>
      </trkpt>
      <trkpt lat="45.31916" lon="4.76158">
        <ele>151.06</ele>
        <time>2022-03-09T08:38:51Z</time>
      </trkpt>
      <trkpt lat="45.31917" lon="4.76179">
        <ele>148.18</ele>
        <time>2022-03-09T08:38:37Z</time>
      </trkpt>
      <trkpt lat="45.31918" lon="4.76173">
        <ele>148.18</ele>
        <time>2022-03-09T08:38:23Z</time>
      </trkpt>
      <trkpt lat="45.31915" lon="4.76174">
        <ele>148.18</ele>
        <time>2022-03-09T08:38:19Z</time>
      </trkpt>
      <trkpt lat="45.31899" lon="4.76186">
        <ele>146.26</ele>
        <time>2022-03-09T08:38:02Z</time>
      </trkpt>
      <trkpt lat="45.31873" lon="4.76184">
        <ele>144.34</ele>
        <time>2022-03-09T08:37:42Z</time>
      </trkpt>
      <trkpt lat="45.31864" lon="4.76186">
        <ele>145.78</ele>
        <time>2022-03-09T08:37:26Z</time>
      </trkpt>
      <trkpt lat="45.31851" lon="4.76202">
        <ele>146.74</ele>
        <time>2022-03-09T08:37:12Z</time>
      </trkpt>
      <trkpt lat="45.31852" lon="4.76201">
        <ele>147.7</ele>
        <time>2022-03-09T08:36:55Z</time>
      </trkpt>
      <trkpt lat="45.31856" lon="4.76201">
        <ele>146.74</ele>
        <time>2022-03-09T08:36:36Z</time>
      </trkpt>
      <trkpt lat="45.31858" lon="4.76192">
        <ele>147.22</ele>
        <time>2022-03-09T08:36:22Z</time>
      </trkpt>
      <trkpt lat="45.31861" lon="4.76186">
        <ele>146.74</ele>
        <time>2022-03-09T08:36:08Z</time>
      </trkpt>
      <trkpt lat="45.31859" lon="4.76189">
        <ele>146.26</ele>
        <time>2022-03-09T08:35:54Z</time>
      </trkpt>
      <trkpt lat="45.31851" lon="4.7621">
        <ele>145.3</ele>
        <time>2022-03-09T08:35:41Z</time>
      </trkpt>
      <trkpt lat="45.31852" lon="4.76235">
        <ele>143.37</ele>
        <time>2022-03-09T08:35:22Z</time>
      </trkpt>
      <trkpt lat="45.31866" lon="4.76258">
        <ele>142.41</ele>
        <time>2022-03-09T08:35:08Z</time>
      </trkpt>
      <trkpt lat="45.3187" lon="4.76269">
        <ele>142.41</ele>
        <time>2022-03-09T08:35:02Z</time>
      </trkpt>
      <trkpt lat="45.31881" lon="4.76293">
        <ele>140.97</ele>
        <time>2022-03-09T08:34:43Z</time>
      </trkpt>
      <trkpt lat="45.31895" lon="4.76316">
        <ele>139.53</ele>
        <time>2022-03-09T08:34:25Z</time>
      </trkpt>
      <trkpt lat="45.31903" lon="4.76348">
        <ele>138.57</ele>
        <time>2022-03-09T08:34:06Z</time>
      </trkpt>
      <trkpt lat="45.31904" lon="4.76358">
        <ele>136.16</ele>
        <time>2022-03-09T08:33:53Z</time>
      </trkpt>
      <trkpt lat="45.31909" lon="4.76374">
        <ele>136.64</ele>
        <time>2022-03-09T08:33:32Z</time>
      </trkpt>
      <trkpt lat="45.31905" lon="4.76398">
        <ele>135.2</ele>
        <time>2022-03-09T08:33:18Z</time>
      </trkpt>
      <trkpt lat="45.31906" lon="4.76404">
        <ele>135.2</ele>
        <time>2022-03-09T08:33:17Z</time>
      </trkpt>
      <trkpt lat="45.31896" lon="4.76427">
        <ele>134.72</ele>
        <time>2022-03-09T08:33:00Z</time>
      </trkpt>
      <trkpt lat="45.31893" lon="4.7646">
        <ele>135.2</ele>
        <time>2022-03-09T08:32:43Z</time>
      </trkpt>
      <trkpt lat="45.31891" lon="4.76465">
        <ele>135.2</ele>
        <time>2022-03-09T08:32:38Z</time>
      </trkpt>
      <trkpt lat="45.31876" lon="4.76479">
        <ele>135.2</ele>
        <time>2022-03-09T08:32:24Z</time>
      </trkpt>
      <trkpt lat="45.31862" lon="4.76488">
        <ele>134.72</ele>
        <time>2022-03-09T08:32:11Z</time>
      </trkpt>
      <trkpt lat="45.31853" lon="4.76501">
        <ele>135.2</ele>
        <time>2022-03-09T08:31:58Z</time>
      </trkpt>
      <trkpt lat="45.31839" lon="4.76521">
        <ele>135.68</ele>
        <time>2022-03-09T08:31:39Z</time>
      </trkpt>
      <trkpt lat="45.31841" lon="4.76535">
        <ele>136.16</ele>
        <time>2022-03-09T08:31:25Z</time>
      </trkpt>
      <trkpt lat="45.3184" lon="4.76537">
        <ele>136.16</ele>
        <time>2022-03-09T08:30:56Z</time>
      </trkpt>
      <trkpt lat="45.31837" lon="4.7654">
        <ele>135.68</ele>
        <time>2022-03-09T08:30:42Z</time>
      </trkpt>
      <trkpt lat="45.31831" lon="4.76548">
        <ele>136.16</ele>
        <time>2022-03-09T08:30:29Z</time>
      </trkpt>
      <trkpt lat="45.31815" lon="4.76573">
        <ele>137.13</ele>
        <time>2022-03-09T08:30:08Z</time>
      </trkpt>
      <trkpt lat="45.31799" lon="4.76598">
        <ele>137.61</ele>
        <time>2022-03-09T08:29:49Z</time>
      </trkpt>
      <trkpt lat="45.31798" lon="4.766">
        <ele>137.61</ele>
        <time>2022-03-09T08:29:47Z</time>
      </trkpt>
      <trkpt lat="45.31797" lon="4.76621">
        <ele>139.05</ele>
        <time>2022-03-09T08:29:34Z</time>
      </trkpt>
      <trkpt lat="45.31805" lon="4.76639">
        <ele>139.05</ele>
        <time>2022-03-09T08:29:21Z</time>
      </trkpt>
      <trkpt lat="45.31814" lon="4.76659">
        <ele>140.49</ele>
        <time>2022-03-09T08:29:06Z</time>
      </trkpt>
      <trkpt lat="45.31826" lon="4.76684">
        <ele>140.97</ele>
        <time>2022-03-09T08:28:49Z</time>
      </trkpt>
      <trkpt lat="45.31837" lon="4.7671">
        <ele>140.97</ele>
        <time>2022-03-09T08:28:31Z</time>
      </trkpt>
      <trkpt lat="45.31848" lon="4.76737">
        <ele>140.97</ele>
        <time>2022-03-09T08:28:15Z</time>
      </trkpt>
      <trkpt lat="45.31858" lon="4.76755">
        <ele>140.97</ele>
        <time>2022-03-09T08:28:02Z</time>
      </trkpt>
      <trkpt lat="45.31864" lon="4.76767">
        <ele>140.97</ele>
        <time>2022-03-09T08:27:52Z</time>
      </trkpt>
      <trkpt lat="45.31874" lon="4.76789">
        <ele>139.53</ele>
        <time>2022-03-09T08:27:38Z</time>
      </trkpt>
      <trkpt lat="45.31879" lon="4.76802">
        <ele>139.53</ele>
        <time>2022-03-09T08:27:29Z</time>
      </trkpt>
      <trkpt lat="45.31888" lon="4.76819">
        <ele>138.09</ele>
        <time>2022-03-09T08:27:16Z</time>
      </trkpt>
      <trkpt lat="45.31905" lon="4.76832">
        <ele>137.13</ele>
        <time>2022-03-09T08:27:00Z</time>
      </trkpt>
      <trkpt lat="45.31923" lon="4.76831">
        <ele>135.68</ele>
        <time>2022-03-09T08:26:45Z</time>
      </trkpt>
      <trkpt lat="45.31932" lon="4.76839">
        <ele>135.2</ele>
        <time>2022-03-09T08:26:35Z</time>
      </trkpt>
      <trkpt lat="45.31929" lon="4.76857">
        <ele>136.16</ele>
        <time>2022-03-09T08:26:22Z</time>
      </trkpt>
      <trkpt lat="45.31926" lon="4.76879">
        <ele>136.16</ele>
        <time>2022-03-09T08:26:10Z</time>
      </trkpt>
      <trkpt lat="45.31927" lon="4.76901">
        <ele>135.2</ele>
        <time>2022-03-09T08:25:55Z</time>
      </trkpt>
      <trkpt lat="45.31929" lon="4.76907">
        <ele>134.72</ele>
        <time>2022-03-09T08:25:52Z</time>
      </trkpt>
      <trkpt lat="45.31937" lon="4.76926">
        <ele>134.72</ele>
        <time>2022-03-09T08:25:39Z</time>
      </trkpt>
      <trkpt lat="45.3195" lon="4.7695">
        <ele>135.68</ele>
        <time>2022-03-09T08:25:22Z</time>
      </trkpt>
      <trkpt lat="45.3196" lon="4.76979">
        <ele>134.72</ele>
        <time>2022-03-09T08:25:03Z</time>
      </trkpt>
      <trkpt lat="45.31972" lon="4.76999">
        <ele>135.2</ele>
        <time>2022-03-09T08:24:48Z</time>
      </trkpt>
      <trkpt lat="45.31977" lon="4.77013">
        <ele>135.2</ele>
        <time>2022-03-09T08:24:39Z</time>
      </trkpt>
      <trkpt lat="45.31988" lon="4.77039">
        <ele>134.24</ele>
        <time>2022-03-09T08:24:23Z</time>
      </trkpt>
      <trkpt lat="45.32001" lon="4.7707">
        <ele>134.24</ele>
        <time>2022-03-09T08:24:02Z</time>
      </trkpt>
      <trkpt lat="45.32009" lon="4.77093">
        <ele>133.28</ele>
        <time>2022-03-09T08:23:45Z</time>
      </trkpt>
      <trkpt lat="45.32017" lon="4.77114">
        <ele>134.24</ele>
        <time>2022-03-09T08:23:32Z</time>
      </trkpt>
      <trkpt lat="45.32024" lon="4.77131">
        <ele>134.24</ele>
        <time>2022-03-09T08:23:20Z</time>
      </trkpt>
      <trkpt lat="45.32036" lon="4.7716">
        <ele>133.76</ele>
        <time>2022-03-09T08:23:03Z</time>
      </trkpt>
      <trkpt lat="45.32046" lon="4.77184">
        <ele>134.24</ele>
        <time>2022-03-09T08:22:46Z</time>
      </trkpt>
      <trkpt lat="45.32058" lon="4.77214">
        <ele>134.24</ele>
        <time>2022-03-09T08:22:27Z</time>
      </trkpt>
      <trkpt lat="45.32068" lon="4.77239">
        <ele>134.24</ele>
        <time>2022-03-09T08:22:11Z</time>
      </trkpt>
      <trkpt lat="45.3208" lon="4.77262">
        <ele>133.76</ele>
        <time>2022-03-09T08:21:53Z</time>
      </trkpt>
      <trkpt lat="45.32089" lon="4.77291">
        <ele>133.76</ele>
        <time>2022-03-09T08:21:35Z</time>
      </trkpt>
      <trkpt lat="45.32102" lon="4.7732">
        <ele>133.76</ele>
        <time>2022-03-09T08:21:18Z</time>
      </trkpt>
      <trkpt lat="45.32114" lon="4.77346">
        <ele>133.76</ele>
        <time>2022-03-09T08:21:01Z</time>
      </trkpt>
      <trkpt lat="45.32124" lon="4.77372">
        <ele>134.24</ele>
        <time>2022-03-09T08:20:44Z</time>
      </trkpt>
      <trkpt lat="45.32134" lon="4.77398">
        <ele>134.72</ele>
        <time>2022-03-09T08:20:27Z</time>
      </trkpt>
      <trkpt lat="45.3215" lon="4.77432">
        <ele>134.24</ele>
        <time>2022-03-09T08:20:06Z</time>
      </trkpt>
      <trkpt lat="45.32164" lon="4.77461">
        <ele>134.72</ele>
        <time>2022-03-09T08:19:47Z</time>
      </trkpt>
      <trkpt lat="45.32175" lon="4.7749">
        <ele>135.2</ele>
        <time>2022-03-09T08:19:27Z</time>
      </trkpt>
      <trkpt lat="45.32188" lon="4.77522">
        <ele>134.72</ele>
        <time>2022-03-09T08:19:06Z</time>
      </trkpt>
      <trkpt lat="45.32201" lon="4.77552">
        <ele>134.72</ele>
        <time>2022-03-09T08:18:45Z</time>
      </trkpt>
      <trkpt lat="45.32214" lon="4.77581">
        <ele>134.72</ele>
        <time>2022-03-09T08:18:27Z</time>
      </trkpt>
      <trkpt lat="45.32229" lon="4.77621">
        <ele>134.72</ele>
        <time>2022-03-09T08:18:03Z</time>
      </trkpt>
      <trkpt lat="45.32242" lon="4.77649">
        <ele>135.2</ele>
        <time>2022-03-09T08:17:44Z</time>
      </trkpt>
      <trkpt lat="45.32254" lon="4.77678">
        <ele>135.68</ele>
        <time>2022-03-09T08:17:25Z</time>
      </trkpt>
      <trkpt lat="45.32269" lon="4.77706">
        <ele>135.2</ele>
        <time>2022-03-09T08:17:06Z</time>
      </trkpt>
      <trkpt lat="45.32272" lon="4.77715">
        <ele>135.68</ele>
        <time>2022-03-09T08:17:01Z</time>
      </trkpt>
      <trkpt lat="45.32276" lon="4.77723">
        <ele>135.2</ele>
        <time>2022-03-09T08:16:55Z</time>
      </trkpt>
      <trkpt lat="45.32287" lon="4.77751">
        <ele>136.16</ele>
        <time>2022-03-09T08:16:37Z</time>
      </trkpt>
      <trkpt lat="45.32299" lon="4.77776">
        <ele>136.16</ele>
        <time>2022-03-09T08:16:19Z</time>
      </trkpt>
      <trkpt lat="45.32304" lon="4.77781">
        <ele>135.68</ele>
        <time>2022-03-09T08:16:05Z</time>
      </trkpt>
      <trkpt lat="45.32306" lon="4.77781">
        <ele>136.16</ele>
        <time>2022-03-09T08:15:53Z</time>
      </trkpt>
      <trkpt lat="45.32307" lon="4.77781">
        <ele>135.68</ele>
        <time>2022-03-09T08:15:37Z</time>
      </trkpt>
      <trkpt lat="45.32307" lon="4.7778">
        <ele>135.68</ele>
        <time>2022-03-09T08:14:57Z</time>
      </trkpt>
      <trkpt lat="45.32308" lon="4.77783">
        <ele>135.68</ele>
        <time>2022-03-09T08:14:10Z</time>
      </trkpt>
      <trkpt lat="45.32307" lon="4.77783">
        <ele>135.68</ele>
        <time>2022-03-09T08:13:59Z</time>
      </trkpt>
      <trkpt lat="45.32305" lon="4.77771">
        <ele>135.68</ele>
        <time>2022-03-09T08:13:41Z</time>
      </trkpt>
      <trkpt lat="45.32309" lon="4.77773">
        <ele>136.16</ele>
        <time>2022-03-09T08:12:58Z</time>
      </trkpt>
      <trkpt lat="45.32309" lon="4.77772">
        <ele>136.16</ele>
        <time>2022-03-09T08:12:16Z</time>
      </trkpt>
      <trkpt lat="45.3231" lon="4.77771">
        <ele>135.68</ele>
        <time>2022-03-09T08:11:45Z</time>
      </trkpt>
      <trkpt lat="45.32304" lon="4.77765">
        <ele>135.2</ele>
        <time>2022-03-09T08:11:05Z</time>
      </trkpt>
      <trkpt lat="45.32302" lon="4.77761">
        <ele>135.68</ele>
        <time>2022-03-09T08:10:28Z</time>
      </trkpt>
      <trkpt lat="45.32296" lon="4.77758">
        <ele>135.2</ele>
        <time>2022-03-09T08:10:04Z</time>
      </trkpt>
      <trkpt lat="45.32296" lon="4.77757">
        <ele>135.2</ele>
        <time>2022-03-09T08:10:03Z</time>
      </trkpt>
      <trkpt lat="45.32292" lon="4.77729">
        <ele>67.91</ele>
        <time>2022-03-09T08:09:37Z</time>
      </trkpt>
      <trkpt lat="45.32307" lon="4.7777">
        <ele>67.91</ele>
        <time>2022-03-09T08:09:36Z</time>
      </trkpt>
      <trkpt lat="45.32319" lon="4.77761">
        <ele>145.78</ele>
        <time>2022-03-08T13:32:59Z</time>
      </trkpt>
      <trkpt lat="45.32319" lon="4.77763">
        <ele>145.3</ele>
        <time>2022-03-08T13:32:51Z</time>
      </trkpt>
      <trkpt lat="45.32307" lon="4.7777">
        <ele>145.3</ele>
        <time>2022-03-08T13:32:20Z</time>
      </trkpt>
      <trkpt lat="45.32304" lon="4.77766">
        <ele>145.3</ele>
        <time>2022-03-08T13:31:51Z</time>
      </trkpt>
      <trkpt lat="45.32309" lon="4.77762">
        <ele>144.82</ele>
        <time>2022-03-08T13:31:16Z</time>
      </trkpt>
      <trkpt lat="45.32309" lon="4.77763">
        <ele>146.74</ele>
        <time>2022-03-08T13:31:11Z</time>
      </trkpt>
      <trkpt lat="45.32308" lon="4.77764">
        <ele>146.74</ele>
        <time>2022-03-08T13:31:10Z</time>
      </trkpt>
      <trkpt lat="45.3231" lon="4.77763">
        <ele>139.05</ele>
        <time>2022-03-08T13:31:07Z</time>
      </trkpt>
    </trkseg>
  </trk>
</gpx>